<?xml version="1.0" encoding="UTF-8" standalone="no" ?>
<gpx xmlns="http://www.topografix.com/GPX/1/1" xmlns:xsi="http://www.w3.org/2001/XMLSchema-instance" xsi:schemaLocation="http://www.topografix.com/GPX/1/1 http://www.topografix.com/GPX/1/1/gpx.xsd" version="1.1" creator="VisuGPX - https://www.visugpx.com">
  <metadata>
    <name>83-D-Besse sur Issole</name>
    <desc><![CDATA[83-D-Besse sur Issole : Garavan - Béu maure
2025-04-06-JF]]></desc>
  </metadata>
  <trk>
    <name><![CDATA[2025-04-06-D-JF-besse]]></name>
    <desc><![CDATA[comment ...Type : Rando dimanche]]></desc>
    <extensions>
      <line xmlns="http://www.topografix.com/GPX/gpx_style/0/2">
        <width>4</width>
      </line>
    </extensions>
    <trkseg>
      <trkpt lat="43.3507" lon="6.17832">
        <ele>214</ele>
        <time>2025-04-06T07:26:27.000Z</time>
      </trkpt>
      <trkpt lat="43.3507" lon="6.17832">
        <ele>214</ele>
        <time>2025-04-06T07:26:27.000Z</time>
      </trkpt>
      <trkpt lat="43.3508" lon="6.17823">
        <ele>237</ele>
        <time>2025-04-06T07:26:39.000Z</time>
      </trkpt>
      <trkpt lat="43.35087" lon="6.17821">
        <ele>240</ele>
        <time>2025-04-06T07:26:47.000Z</time>
      </trkpt>
      <trkpt lat="43.35094" lon="6.17819">
        <ele>242</ele>
        <time>2025-04-06T07:26:55.000Z</time>
      </trkpt>
      <trkpt lat="43.35103" lon="6.17818">
        <ele>245</ele>
        <time>2025-04-06T07:27:07.000Z</time>
      </trkpt>
      <trkpt lat="43.35108" lon="6.17775">
        <ele>242</ele>
        <time>2025-04-06T07:27:37.000Z</time>
      </trkpt>
      <trkpt lat="43.35108" lon="6.17765">
        <ele>239</ele>
        <time>2025-04-06T07:27:45.000Z</time>
      </trkpt>
      <trkpt lat="43.35103" lon="6.17757">
        <ele>233</ele>
        <time>2025-04-06T07:28:27.000Z</time>
      </trkpt>
      <trkpt lat="43.35095" lon="6.17733">
        <ele>207</ele>
        <time>2025-04-06T07:28:49.000Z</time>
      </trkpt>
      <trkpt lat="43.35088" lon="6.17717">
        <ele>235</ele>
        <time>2025-04-06T07:30:03.000Z</time>
      </trkpt>
      <trkpt lat="43.35087" lon="6.17705">
        <ele>237</ele>
        <time>2025-04-06T07:30:11.000Z</time>
      </trkpt>
      <trkpt lat="43.35085" lon="6.17692">
        <ele>239</ele>
        <time>2025-04-06T07:30:21.000Z</time>
      </trkpt>
      <trkpt lat="43.35087" lon="6.17681">
        <ele>241</ele>
        <time>2025-04-06T07:30:31.000Z</time>
      </trkpt>
      <trkpt lat="43.35076" lon="6.17661">
        <ele>239</ele>
        <time>2025-04-06T07:31:13.000Z</time>
      </trkpt>
      <trkpt lat="43.35071" lon="6.17653">
        <ele>239</ele>
        <time>2025-04-06T07:31:21.000Z</time>
      </trkpt>
      <trkpt lat="43.35052" lon="6.17629">
        <ele>235</ele>
        <time>2025-04-06T07:31:51.000Z</time>
      </trkpt>
      <trkpt lat="43.35046" lon="6.17622">
        <ele>234</ele>
        <time>2025-04-06T07:31:57.000Z</time>
      </trkpt>
      <trkpt lat="43.35037" lon="6.17599">
        <ele>236</ele>
        <time>2025-04-06T07:32:13.000Z</time>
      </trkpt>
      <trkpt lat="43.35035" lon="6.17588">
        <ele>236</ele>
        <time>2025-04-06T07:32:19.000Z</time>
      </trkpt>
      <trkpt lat="43.35036" lon="6.17573">
        <ele>238</ele>
        <time>2025-04-06T07:32:27.000Z</time>
      </trkpt>
      <trkpt lat="43.35034" lon="6.17564">
        <ele>238</ele>
        <time>2025-04-06T07:32:35.000Z</time>
      </trkpt>
      <trkpt lat="43.35028" lon="6.17552">
        <ele>241</ele>
        <time>2025-04-06T07:33:19.000Z</time>
      </trkpt>
      <trkpt lat="43.35037" lon="6.1755">
        <ele>243</ele>
        <time>2025-04-06T07:33:51.000Z</time>
      </trkpt>
      <trkpt lat="43.35033" lon="6.17539">
        <ele>242</ele>
        <time>2025-04-06T07:35:09.000Z</time>
      </trkpt>
      <trkpt lat="43.35033" lon="6.17527">
        <ele>242</ele>
        <time>2025-04-06T07:35:17.000Z</time>
      </trkpt>
      <trkpt lat="43.35038" lon="6.17516">
        <ele>241</ele>
        <time>2025-04-06T07:35:23.000Z</time>
      </trkpt>
      <trkpt lat="43.3504" lon="6.17503">
        <ele>242</ele>
        <time>2025-04-06T07:35:31.000Z</time>
      </trkpt>
      <trkpt lat="43.35048" lon="6.17482">
        <ele>242</ele>
        <time>2025-04-06T07:35:45.000Z</time>
      </trkpt>
      <trkpt lat="43.35065" lon="6.17441">
        <ele>239</ele>
        <time>2025-04-06T07:36:15.000Z</time>
      </trkpt>
      <trkpt lat="43.35069" lon="6.17432">
        <ele>240</ele>
        <time>2025-04-06T07:36:23.000Z</time>
      </trkpt>
      <trkpt lat="43.35064" lon="6.17421">
        <ele>242</ele>
        <time>2025-04-06T07:36:33.000Z</time>
      </trkpt>
      <trkpt lat="43.35063" lon="6.17411">
        <ele>242</ele>
        <time>2025-04-06T07:36:47.000Z</time>
      </trkpt>
      <trkpt lat="43.35063" lon="6.174">
        <ele>245</ele>
        <time>2025-04-06T07:36:55.000Z</time>
      </trkpt>
      <trkpt lat="43.35057" lon="6.17392">
        <ele>246</ele>
        <time>2025-04-06T07:37:07.000Z</time>
      </trkpt>
      <trkpt lat="43.35048" lon="6.17393">
        <ele>247</ele>
        <time>2025-04-06T07:37:15.000Z</time>
      </trkpt>
      <trkpt lat="43.35042" lon="6.17385">
        <ele>247</ele>
        <time>2025-04-06T07:37:27.000Z</time>
      </trkpt>
      <trkpt lat="43.35049" lon="6.17379">
        <ele>247</ele>
        <time>2025-04-06T07:37:37.000Z</time>
      </trkpt>
      <trkpt lat="43.35056" lon="6.17376">
        <ele>248</ele>
        <time>2025-04-06T07:37:55.000Z</time>
      </trkpt>
      <trkpt lat="43.3508" lon="6.17363">
        <ele>249</ele>
        <time>2025-04-06T07:38:21.000Z</time>
      </trkpt>
      <trkpt lat="43.35098" lon="6.17351">
        <ele>251</ele>
        <time>2025-04-06T07:38:37.000Z</time>
      </trkpt>
      <trkpt lat="43.35112" lon="6.17347">
        <ele>250</ele>
        <time>2025-04-06T07:38:49.000Z</time>
      </trkpt>
      <trkpt lat="43.35129" lon="6.17348">
        <ele>250</ele>
        <time>2025-04-06T07:39:17.000Z</time>
      </trkpt>
      <trkpt lat="43.35142" lon="6.17349">
        <ele>253</ele>
        <time>2025-04-06T07:39:45.000Z</time>
      </trkpt>
      <trkpt lat="43.35154" lon="6.17349">
        <ele>256</ele>
        <time>2025-04-06T07:39:57.000Z</time>
      </trkpt>
      <trkpt lat="43.35191" lon="6.17348">
        <ele>258</ele>
        <time>2025-04-06T07:40:27.000Z</time>
      </trkpt>
      <trkpt lat="43.3521" lon="6.17339">
        <ele>260</ele>
        <time>2025-04-06T07:40:47.000Z</time>
      </trkpt>
      <trkpt lat="43.35221" lon="6.173">
        <ele>259</ele>
        <time>2025-04-06T07:41:17.000Z</time>
      </trkpt>
      <trkpt lat="43.35223" lon="6.1729">
        <ele>259</ele>
        <time>2025-04-06T07:41:23.000Z</time>
      </trkpt>
      <trkpt lat="43.35233" lon="6.17258">
        <ele>258</ele>
        <time>2025-04-06T07:41:45.000Z</time>
      </trkpt>
      <trkpt lat="43.35233" lon="6.17241">
        <ele>261</ele>
        <time>2025-04-06T07:41:55.000Z</time>
      </trkpt>
      <trkpt lat="43.35245" lon="6.17216">
        <ele>265</ele>
        <time>2025-04-06T07:42:15.000Z</time>
      </trkpt>
      <trkpt lat="43.35246" lon="6.17207">
        <ele>266</ele>
        <time>2025-04-06T07:42:41.000Z</time>
      </trkpt>
      <trkpt lat="43.35254" lon="6.17201">
        <ele>265</ele>
        <time>2025-04-06T07:43:27.000Z</time>
      </trkpt>
      <trkpt lat="43.35298" lon="6.17144">
        <ele>265</ele>
        <time>2025-04-06T07:44:17.000Z</time>
      </trkpt>
      <trkpt lat="43.35316" lon="6.17121">
        <ele>265</ele>
        <time>2025-04-06T07:44:37.000Z</time>
      </trkpt>
      <trkpt lat="43.3532" lon="6.17105">
        <ele>267</ele>
        <time>2025-04-06T07:44:45.000Z</time>
      </trkpt>
      <trkpt lat="43.35327" lon="6.17085">
        <ele>271</ele>
        <time>2025-04-06T07:44:59.000Z</time>
      </trkpt>
      <trkpt lat="43.35351" lon="6.17052">
        <ele>272</ele>
        <time>2025-04-06T07:45:39.000Z</time>
      </trkpt>
      <trkpt lat="43.35359" lon="6.17047">
        <ele>272</ele>
        <time>2025-04-06T07:45:45.000Z</time>
      </trkpt>
      <trkpt lat="43.35372" lon="6.1703">
        <ele>271</ele>
        <time>2025-04-06T07:46:01.000Z</time>
      </trkpt>
      <trkpt lat="43.35375" lon="6.17015">
        <ele>274</ele>
        <time>2025-04-06T07:46:47.000Z</time>
      </trkpt>
      <trkpt lat="43.35385" lon="6.17008">
        <ele>278</ele>
        <time>2025-04-06T07:46:57.000Z</time>
      </trkpt>
      <trkpt lat="43.35392" lon="6.17004">
        <ele>280</ele>
        <time>2025-04-06T07:47:05.000Z</time>
      </trkpt>
      <trkpt lat="43.35401" lon="6.17001">
        <ele>282</ele>
        <time>2025-04-06T07:47:11.000Z</time>
      </trkpt>
      <trkpt lat="43.35408" lon="6.17003">
        <ele>280</ele>
        <time>2025-04-06T07:47:19.000Z</time>
      </trkpt>
      <trkpt lat="43.35416" lon="6.17001">
        <ele>280</ele>
        <time>2025-04-06T07:47:29.000Z</time>
      </trkpt>
      <trkpt lat="43.35424" lon="6.17001">
        <ele>283</ele>
        <time>2025-04-06T07:47:39.000Z</time>
      </trkpt>
      <trkpt lat="43.3544" lon="6.16999">
        <ele>288</ele>
        <time>2025-04-06T07:47:55.000Z</time>
      </trkpt>
      <trkpt lat="43.35449" lon="6.17002">
        <ele>289</ele>
        <time>2025-04-06T07:48:47.000Z</time>
      </trkpt>
      <trkpt lat="43.35469" lon="6.16989">
        <ele>289</ele>
        <time>2025-04-06T07:49:19.000Z</time>
      </trkpt>
      <trkpt lat="43.35484" lon="6.16984">
        <ele>293</ele>
        <time>2025-04-06T07:49:37.000Z</time>
      </trkpt>
      <trkpt lat="43.35495" lon="6.16979">
        <ele>295</ele>
        <time>2025-04-06T07:49:51.000Z</time>
      </trkpt>
      <trkpt lat="43.35512" lon="6.16972">
        <ele>298</ele>
        <time>2025-04-06T07:50:23.000Z</time>
      </trkpt>
      <trkpt lat="43.35518" lon="6.16965">
        <ele>301</ele>
        <time>2025-04-06T07:50:39.000Z</time>
      </trkpt>
      <trkpt lat="43.35525" lon="6.16962">
        <ele>303</ele>
        <time>2025-04-06T07:50:51.000Z</time>
      </trkpt>
      <trkpt lat="43.35532" lon="6.16954">
        <ele>306</ele>
        <time>2025-04-06T07:51:17.000Z</time>
      </trkpt>
      <trkpt lat="43.3554" lon="6.16956">
        <ele>307</ele>
        <time>2025-04-06T07:51:25.000Z</time>
      </trkpt>
      <trkpt lat="43.35565" lon="6.16945">
        <ele>311</ele>
        <time>2025-04-06T07:52:03.000Z</time>
      </trkpt>
      <trkpt lat="43.35572" lon="6.16939">
        <ele>311</ele>
        <time>2025-04-06T07:52:15.000Z</time>
      </trkpt>
      <trkpt lat="43.35586" lon="6.16927">
        <ele>313</ele>
        <time>2025-04-06T07:52:41.000Z</time>
      </trkpt>
      <trkpt lat="43.35595" lon="6.16919">
        <ele>315</ele>
        <time>2025-04-06T07:52:59.000Z</time>
      </trkpt>
      <trkpt lat="43.35601" lon="6.16909">
        <ele>318</ele>
        <time>2025-04-06T07:53:13.000Z</time>
      </trkpt>
      <trkpt lat="43.35605" lon="6.16896">
        <ele>323</ele>
        <time>2025-04-06T07:53:31.000Z</time>
      </trkpt>
      <trkpt lat="43.35606" lon="6.16881">
        <ele>323</ele>
        <time>2025-04-06T07:53:47.000Z</time>
      </trkpt>
      <trkpt lat="43.35609" lon="6.1687">
        <ele>323</ele>
        <time>2025-04-06T07:53:59.000Z</time>
      </trkpt>
      <trkpt lat="43.35613" lon="6.1686">
        <ele>326</ele>
        <time>2025-04-06T07:54:11.000Z</time>
      </trkpt>
      <trkpt lat="43.3562" lon="6.16844">
        <ele>329</ele>
        <time>2025-04-06T07:54:29.000Z</time>
      </trkpt>
      <trkpt lat="43.35628" lon="6.16839">
        <ele>330</ele>
        <time>2025-04-06T07:54:41.000Z</time>
      </trkpt>
      <trkpt lat="43.35632" lon="6.16847">
        <ele>331</ele>
        <time>2025-04-06T07:54:53.000Z</time>
      </trkpt>
      <trkpt lat="43.35638" lon="6.16855">
        <ele>333</ele>
        <time>2025-04-06T07:55:15.000Z</time>
      </trkpt>
      <trkpt lat="43.35643" lon="6.16862">
        <ele>337</ele>
        <time>2025-04-06T07:56:35.000Z</time>
      </trkpt>
      <trkpt lat="43.3565" lon="6.16883">
        <ele>336</ele>
        <time>2025-04-06T07:56:55.000Z</time>
      </trkpt>
      <trkpt lat="43.35655" lon="6.16892">
        <ele>335</ele>
        <time>2025-04-06T07:57:03.000Z</time>
      </trkpt>
      <trkpt lat="43.35664" lon="6.16901">
        <ele>336</ele>
        <time>2025-04-06T07:57:15.000Z</time>
      </trkpt>
      <trkpt lat="43.35669" lon="6.16908">
        <ele>338</ele>
        <time>2025-04-06T07:57:27.000Z</time>
      </trkpt>
      <trkpt lat="43.35677" lon="6.16907">
        <ele>339</ele>
        <time>2025-04-06T07:57:35.000Z</time>
      </trkpt>
      <trkpt lat="43.35705" lon="6.16903">
        <ele>342</ele>
        <time>2025-04-06T07:58:03.000Z</time>
      </trkpt>
      <trkpt lat="43.35715" lon="6.16904">
        <ele>343</ele>
        <time>2025-04-06T07:58:15.000Z</time>
      </trkpt>
      <trkpt lat="43.35731" lon="6.16897">
        <ele>346</ele>
        <time>2025-04-06T07:58:59.000Z</time>
      </trkpt>
      <trkpt lat="43.35746" lon="6.16867">
        <ele>344</ele>
        <time>2025-04-06T07:59:29.000Z</time>
      </trkpt>
      <trkpt lat="43.35748" lon="6.16856">
        <ele>345</ele>
        <time>2025-04-06T07:59:37.000Z</time>
      </trkpt>
      <trkpt lat="43.35758" lon="6.16832">
        <ele>346</ele>
        <time>2025-04-06T07:59:55.000Z</time>
      </trkpt>
      <trkpt lat="43.35771" lon="6.16815">
        <ele>347</ele>
        <time>2025-04-06T08:00:13.000Z</time>
      </trkpt>
      <trkpt lat="43.35803" lon="6.1679">
        <ele>350</ele>
        <time>2025-04-06T08:00:49.000Z</time>
      </trkpt>
      <trkpt lat="43.35814" lon="6.16793">
        <ele>349</ele>
        <time>2025-04-06T08:00:59.000Z</time>
      </trkpt>
      <trkpt lat="43.35822" lon="6.16793">
        <ele>350</ele>
        <time>2025-04-06T08:01:07.000Z</time>
      </trkpt>
      <trkpt lat="43.35835" lon="6.16791">
        <ele>352</ele>
        <time>2025-04-06T08:01:21.000Z</time>
      </trkpt>
      <trkpt lat="43.35869" lon="6.16768">
        <ele>354</ele>
        <time>2025-04-06T08:01:57.000Z</time>
      </trkpt>
      <trkpt lat="43.35875" lon="6.16762">
        <ele>353</ele>
        <time>2025-04-06T08:02:05.000Z</time>
      </trkpt>
      <trkpt lat="43.35882" lon="6.16751">
        <ele>353</ele>
        <time>2025-04-06T08:02:15.000Z</time>
      </trkpt>
      <trkpt lat="43.35888" lon="6.1674">
        <ele>356</ele>
        <time>2025-04-06T08:02:25.000Z</time>
      </trkpt>
      <trkpt lat="43.35898" lon="6.16724">
        <ele>359</ele>
        <time>2025-04-06T08:02:39.000Z</time>
      </trkpt>
      <trkpt lat="43.35903" lon="6.16718">
        <ele>360</ele>
        <time>2025-04-06T08:02:47.000Z</time>
      </trkpt>
      <trkpt lat="43.35921" lon="6.16704">
        <ele>363</ele>
        <time>2025-04-06T08:03:05.000Z</time>
      </trkpt>
      <trkpt lat="43.35928" lon="6.16695">
        <ele>366</ele>
        <time>2025-04-06T08:03:17.000Z</time>
      </trkpt>
      <trkpt lat="43.35941" lon="6.16682">
        <ele>367</ele>
        <time>2025-04-06T08:03:31.000Z</time>
      </trkpt>
      <trkpt lat="43.35963" lon="6.16655">
        <ele>367</ele>
        <time>2025-04-06T08:04:05.000Z</time>
      </trkpt>
      <trkpt lat="43.35975" lon="6.16638">
        <ele>370</ele>
        <time>2025-04-06T08:04:21.000Z</time>
      </trkpt>
      <trkpt lat="43.35987" lon="6.16622">
        <ele>372</ele>
        <time>2025-04-06T08:04:37.000Z</time>
      </trkpt>
      <trkpt lat="43.35996" lon="6.16591">
        <ele>376</ele>
        <time>2025-04-06T08:05:17.000Z</time>
      </trkpt>
      <trkpt lat="43.36004" lon="6.16544">
        <ele>375</ele>
        <time>2025-04-06T08:05:47.000Z</time>
      </trkpt>
      <trkpt lat="43.3601" lon="6.16505">
        <ele>378</ele>
        <time>2025-04-06T08:06:15.000Z</time>
      </trkpt>
      <trkpt lat="43.36014" lon="6.16496">
        <ele>381</ele>
        <time>2025-04-06T08:06:23.000Z</time>
      </trkpt>
      <trkpt lat="43.36016" lon="6.16484">
        <ele>383</ele>
        <time>2025-04-06T08:06:31.000Z</time>
      </trkpt>
      <trkpt lat="43.36018" lon="6.16458">
        <ele>385</ele>
        <time>2025-04-06T08:06:51.000Z</time>
      </trkpt>
      <trkpt lat="43.36024" lon="6.16433">
        <ele>384</ele>
        <time>2025-04-06T08:07:09.000Z</time>
      </trkpt>
      <trkpt lat="43.36025" lon="6.16412">
        <ele>387</ele>
        <time>2025-04-06T08:07:23.000Z</time>
      </trkpt>
      <trkpt lat="43.36026" lon="6.16401">
        <ele>390</ele>
        <time>2025-04-06T08:07:29.000Z</time>
      </trkpt>
      <trkpt lat="43.36032" lon="6.16362">
        <ele>393</ele>
        <time>2025-04-06T08:07:57.000Z</time>
      </trkpt>
      <trkpt lat="43.36032" lon="6.16336">
        <ele>395</ele>
        <time>2025-04-06T08:08:15.000Z</time>
      </trkpt>
      <trkpt lat="43.36038" lon="6.16295">
        <ele>394</ele>
        <time>2025-04-06T08:08:45.000Z</time>
      </trkpt>
      <trkpt lat="43.36046" lon="6.16259">
        <ele>397</ele>
        <time>2025-04-06T08:09:11.000Z</time>
      </trkpt>
      <trkpt lat="43.3605" lon="6.16248">
        <ele>396</ele>
        <time>2025-04-06T08:09:21.000Z</time>
      </trkpt>
      <trkpt lat="43.36053" lon="6.16237">
        <ele>397</ele>
        <time>2025-04-06T08:09:27.000Z</time>
      </trkpt>
      <trkpt lat="43.36056" lon="6.16227">
        <ele>399</ele>
        <time>2025-04-06T08:09:35.000Z</time>
      </trkpt>
      <trkpt lat="43.36057" lon="6.162">
        <ele>402</ele>
        <time>2025-04-06T08:09:51.000Z</time>
      </trkpt>
      <trkpt lat="43.36048" lon="6.16147">
        <ele>402</ele>
        <time>2025-04-06T08:10:27.000Z</time>
      </trkpt>
      <trkpt lat="43.36046" lon="6.16135">
        <ele>404</ele>
        <time>2025-04-06T08:10:35.000Z</time>
      </trkpt>
      <trkpt lat="43.36042" lon="6.16114">
        <ele>408</ele>
        <time>2025-04-06T08:10:49.000Z</time>
      </trkpt>
      <trkpt lat="43.36042" lon="6.16103">
        <ele>409</ele>
        <time>2025-04-06T08:10:57.000Z</time>
      </trkpt>
      <trkpt lat="43.36042" lon="6.16091">
        <ele>413</ele>
        <time>2025-04-06T08:11:07.000Z</time>
      </trkpt>
      <trkpt lat="43.36047" lon="6.1608">
        <ele>414</ele>
        <time>2025-04-06T08:11:13.000Z</time>
      </trkpt>
      <trkpt lat="43.36054" lon="6.16074">
        <ele>415</ele>
        <time>2025-04-06T08:11:21.000Z</time>
      </trkpt>
      <trkpt lat="43.36063" lon="6.16075">
        <ele>416</ele>
        <time>2025-04-06T08:11:27.000Z</time>
      </trkpt>
      <trkpt lat="43.36077" lon="6.16092">
        <ele>415</ele>
        <time>2025-04-06T08:11:45.000Z</time>
      </trkpt>
      <trkpt lat="43.36088" lon="6.16097">
        <ele>416</ele>
        <time>2025-04-06T08:11:57.000Z</time>
      </trkpt>
      <trkpt lat="43.36099" lon="6.16096">
        <ele>418</ele>
        <time>2025-04-06T08:12:05.000Z</time>
      </trkpt>
      <trkpt lat="43.36107" lon="6.16087">
        <ele>423</ele>
        <time>2025-04-06T08:12:15.000Z</time>
      </trkpt>
      <trkpt lat="43.36126" lon="6.1604">
        <ele>425</ele>
        <time>2025-04-06T08:12:51.000Z</time>
      </trkpt>
      <trkpt lat="43.3613" lon="6.16025">
        <ele>428</ele>
        <time>2025-04-06T08:13:03.000Z</time>
      </trkpt>
      <trkpt lat="43.36134" lon="6.16016">
        <ele>430</ele>
        <time>2025-04-06T08:13:09.000Z</time>
      </trkpt>
      <trkpt lat="43.36137" lon="6.16006">
        <ele>432</ele>
        <time>2025-04-06T08:13:17.000Z</time>
      </trkpt>
      <trkpt lat="43.3615" lon="6.15966">
        <ele>432</ele>
        <time>2025-04-06T08:13:47.000Z</time>
      </trkpt>
      <trkpt lat="43.36157" lon="6.15943">
        <ele>431</ele>
        <time>2025-04-06T08:14:03.000Z</time>
      </trkpt>
      <trkpt lat="43.36173" lon="6.15919">
        <ele>435</ele>
        <time>2025-04-06T08:14:23.000Z</time>
      </trkpt>
      <trkpt lat="43.36208" lon="6.15886">
        <ele>441</ele>
        <time>2025-04-06T08:14:57.000Z</time>
      </trkpt>
      <trkpt lat="43.36234" lon="6.15855">
        <ele>440</ele>
        <time>2025-04-06T08:15:31.000Z</time>
      </trkpt>
      <trkpt lat="43.36233" lon="6.15847">
        <ele>442</ele>
        <time>2025-04-06T08:17:29.000Z</time>
      </trkpt>
      <trkpt lat="43.36242" lon="6.15848">
        <ele>442</ele>
        <time>2025-04-06T08:17:37.000Z</time>
      </trkpt>
      <trkpt lat="43.36243" lon="6.15858">
        <ele>442</ele>
        <time>2025-04-06T08:17:49.000Z</time>
      </trkpt>
      <trkpt lat="43.36234" lon="6.15858">
        <ele>442</ele>
        <time>2025-04-06T08:18:21.000Z</time>
      </trkpt>
      <trkpt lat="43.36234" lon="6.15856">
        <ele>445</ele>
        <time>2025-04-06T08:21:39.000Z</time>
      </trkpt>
      <trkpt lat="43.36229" lon="6.1585">
        <ele>440</ele>
        <time>2025-04-06T08:28:01.000Z</time>
      </trkpt>
      <trkpt lat="43.3622" lon="6.15845">
        <ele>443</ele>
        <time>2025-04-06T08:28:37.000Z</time>
      </trkpt>
      <trkpt lat="43.36177" lon="6.15846">
        <ele>442</ele>
        <time>2025-04-06T08:29:13.000Z</time>
      </trkpt>
      <trkpt lat="43.36169" lon="6.15845">
        <ele>443</ele>
        <time>2025-04-06T08:29:27.000Z</time>
      </trkpt>
      <trkpt lat="43.3613" lon="6.15855">
        <ele>445</ele>
        <time>2025-04-06T08:30:03.000Z</time>
      </trkpt>
      <trkpt lat="43.36121" lon="6.15855">
        <ele>444</ele>
        <time>2025-04-06T08:30:11.000Z</time>
      </trkpt>
      <trkpt lat="43.36097" lon="6.1584">
        <ele>445</ele>
        <time>2025-04-06T08:30:33.000Z</time>
      </trkpt>
      <trkpt lat="43.36093" lon="6.15831">
        <ele>449</ele>
        <time>2025-04-06T08:30:39.000Z</time>
      </trkpt>
      <trkpt lat="43.36076" lon="6.15811">
        <ele>453</ele>
        <time>2025-04-06T08:30:59.000Z</time>
      </trkpt>
      <trkpt lat="43.36073" lon="6.15801">
        <ele>454</ele>
        <time>2025-04-06T08:31:37.000Z</time>
      </trkpt>
      <trkpt lat="43.3607" lon="6.15766">
        <ele>454</ele>
        <time>2025-04-06T08:32:01.000Z</time>
      </trkpt>
      <trkpt lat="43.36078" lon="6.15713">
        <ele>454</ele>
        <time>2025-04-06T08:32:33.000Z</time>
      </trkpt>
      <trkpt lat="43.3608" lon="6.15664">
        <ele>457</ele>
        <time>2025-04-06T08:33:03.000Z</time>
      </trkpt>
      <trkpt lat="43.36077" lon="6.15649">
        <ele>456</ele>
        <time>2025-04-06T08:33:13.000Z</time>
      </trkpt>
      <trkpt lat="43.36073" lon="6.15641">
        <ele>457</ele>
        <time>2025-04-06T08:33:19.000Z</time>
      </trkpt>
      <trkpt lat="43.36064" lon="6.1563">
        <ele>456</ele>
        <time>2025-04-06T08:33:29.000Z</time>
      </trkpt>
      <trkpt lat="43.36052" lon="6.15627">
        <ele>458</ele>
        <time>2025-04-06T08:33:41.000Z</time>
      </trkpt>
      <trkpt lat="43.36028" lon="6.15629">
        <ele>458</ele>
        <time>2025-04-06T08:33:59.000Z</time>
      </trkpt>
      <trkpt lat="43.35989" lon="6.1563">
        <ele>460</ele>
        <time>2025-04-06T08:34:31.000Z</time>
      </trkpt>
      <trkpt lat="43.35963" lon="6.15633">
        <ele>462</ele>
        <time>2025-04-06T08:34:53.000Z</time>
      </trkpt>
      <trkpt lat="43.35953" lon="6.15627">
        <ele>462</ele>
        <time>2025-04-06T08:35:01.000Z</time>
      </trkpt>
      <trkpt lat="43.35946" lon="6.15625">
        <ele>462</ele>
        <time>2025-04-06T08:35:07.000Z</time>
      </trkpt>
      <trkpt lat="43.35936" lon="6.15612">
        <ele>464</ele>
        <time>2025-04-06T08:35:17.000Z</time>
      </trkpt>
      <trkpt lat="43.35931" lon="6.15598">
        <ele>465</ele>
        <time>2025-04-06T08:35:27.000Z</time>
      </trkpt>
      <trkpt lat="43.3593" lon="6.15586">
        <ele>465</ele>
        <time>2025-04-06T08:35:35.000Z</time>
      </trkpt>
      <trkpt lat="43.35929" lon="6.15571">
        <ele>467</ele>
        <time>2025-04-06T08:35:59.000Z</time>
      </trkpt>
      <trkpt lat="43.35937" lon="6.15543">
        <ele>464</ele>
        <time>2025-04-06T08:36:33.000Z</time>
      </trkpt>
      <trkpt lat="43.35944" lon="6.15529">
        <ele>465</ele>
        <time>2025-04-06T08:36:51.000Z</time>
      </trkpt>
      <trkpt lat="43.35951" lon="6.1552">
        <ele>465</ele>
        <time>2025-04-06T08:37:01.000Z</time>
      </trkpt>
      <trkpt lat="43.35962" lon="6.15512">
        <ele>467</ele>
        <time>2025-04-06T08:37:11.000Z</time>
      </trkpt>
      <trkpt lat="43.35969" lon="6.15496">
        <ele>465</ele>
        <time>2025-04-06T08:37:25.000Z</time>
      </trkpt>
      <trkpt lat="43.35975" lon="6.15473">
        <ele>465</ele>
        <time>2025-04-06T08:37:39.000Z</time>
      </trkpt>
      <trkpt lat="43.35967" lon="6.15415">
        <ele>465</ele>
        <time>2025-04-06T08:38:15.000Z</time>
      </trkpt>
      <trkpt lat="43.35975" lon="6.15368">
        <ele>466</ele>
        <time>2025-04-06T08:38:47.000Z</time>
      </trkpt>
      <trkpt lat="43.3598" lon="6.15352">
        <ele>463</ele>
        <time>2025-04-06T08:38:59.000Z</time>
      </trkpt>
      <trkpt lat="43.35981" lon="6.15341">
        <ele>462</ele>
        <time>2025-04-06T08:39:05.000Z</time>
      </trkpt>
      <trkpt lat="43.35985" lon="6.15328">
        <ele>462</ele>
        <time>2025-04-06T08:39:13.000Z</time>
      </trkpt>
      <trkpt lat="43.35984" lon="6.15319">
        <ele>463</ele>
        <time>2025-04-06T08:39:19.000Z</time>
      </trkpt>
      <trkpt lat="43.35979" lon="6.15311">
        <ele>462</ele>
        <time>2025-04-06T08:39:25.000Z</time>
      </trkpt>
      <trkpt lat="43.35972" lon="6.1531">
        <ele>462</ele>
        <time>2025-04-06T08:39:31.000Z</time>
      </trkpt>
      <trkpt lat="43.35961" lon="6.15313">
        <ele>462</ele>
        <time>2025-04-06T08:39:39.000Z</time>
      </trkpt>
      <trkpt lat="43.35923" lon="6.15319">
        <ele>464</ele>
        <time>2025-04-06T08:40:09.000Z</time>
      </trkpt>
      <trkpt lat="43.35915" lon="6.15315">
        <ele>465</ele>
        <time>2025-04-06T08:40:17.000Z</time>
      </trkpt>
      <trkpt lat="43.35899" lon="6.15295">
        <ele>465</ele>
        <time>2025-04-06T08:40:35.000Z</time>
      </trkpt>
      <trkpt lat="43.35892" lon="6.15258">
        <ele>463</ele>
        <time>2025-04-06T08:40:57.000Z</time>
      </trkpt>
      <trkpt lat="43.35894" lon="6.15234">
        <ele>462</ele>
        <time>2025-04-06T08:41:11.000Z</time>
      </trkpt>
      <trkpt lat="43.35896" lon="6.15218">
        <ele>460</ele>
        <time>2025-04-06T08:41:21.000Z</time>
      </trkpt>
      <trkpt lat="43.35888" lon="6.15176">
        <ele>460</ele>
        <time>2025-04-06T08:41:45.000Z</time>
      </trkpt>
      <trkpt lat="43.35883" lon="6.15165">
        <ele>459</ele>
        <time>2025-04-06T08:41:55.000Z</time>
      </trkpt>
      <trkpt lat="43.35875" lon="6.15152">
        <ele>456</ele>
        <time>2025-04-06T08:42:05.000Z</time>
      </trkpt>
      <trkpt lat="43.35837" lon="6.15112">
        <ele>452</ele>
        <time>2025-04-06T08:42:43.000Z</time>
      </trkpt>
      <trkpt lat="43.35793" lon="6.1506">
        <ele>452</ele>
        <time>2025-04-06T08:43:29.000Z</time>
      </trkpt>
      <trkpt lat="43.35777" lon="6.15033">
        <ele>453</ele>
        <time>2025-04-06T08:43:49.000Z</time>
      </trkpt>
      <trkpt lat="43.35762" lon="6.14985">
        <ele>451</ele>
        <time>2025-04-06T08:44:21.000Z</time>
      </trkpt>
      <trkpt lat="43.35738" lon="6.14941">
        <ele>451</ele>
        <time>2025-04-06T08:44:55.000Z</time>
      </trkpt>
      <trkpt lat="43.35715" lon="6.14909">
        <ele>448</ele>
        <time>2025-04-06T08:45:25.000Z</time>
      </trkpt>
      <trkpt lat="43.35693" lon="6.14886">
        <ele>447</ele>
        <time>2025-04-06T08:45:49.000Z</time>
      </trkpt>
      <trkpt lat="43.35669" lon="6.14871">
        <ele>446</ele>
        <time>2025-04-06T08:46:13.000Z</time>
      </trkpt>
      <trkpt lat="43.35665" lon="6.14859">
        <ele>447</ele>
        <time>2025-04-06T08:46:29.000Z</time>
      </trkpt>
      <trkpt lat="43.3566" lon="6.14868">
        <ele>447</ele>
        <time>2025-04-06T08:48:15.000Z</time>
      </trkpt>
      <trkpt lat="43.35646" lon="6.14862">
        <ele>447</ele>
        <time>2025-04-06T08:48:47.000Z</time>
      </trkpt>
      <trkpt lat="43.35638" lon="6.14862">
        <ele>446</ele>
        <time>2025-04-06T08:48:53.000Z</time>
      </trkpt>
      <trkpt lat="43.35602" lon="6.14843">
        <ele>446</ele>
        <time>2025-04-06T08:49:25.000Z</time>
      </trkpt>
      <trkpt lat="43.35571" lon="6.14823">
        <ele>448</ele>
        <time>2025-04-06T08:49:53.000Z</time>
      </trkpt>
      <trkpt lat="43.35563" lon="6.14813">
        <ele>449</ele>
        <time>2025-04-06T08:50:03.000Z</time>
      </trkpt>
      <trkpt lat="43.35562" lon="6.14799">
        <ele>448</ele>
        <time>2025-04-06T08:50:13.000Z</time>
      </trkpt>
      <trkpt lat="43.35568" lon="6.14781">
        <ele>446</ele>
        <time>2025-04-06T08:50:27.000Z</time>
      </trkpt>
      <trkpt lat="43.35574" lon="6.14775">
        <ele>447</ele>
        <time>2025-04-06T08:50:39.000Z</time>
      </trkpt>
      <trkpt lat="43.35591" lon="6.14762">
        <ele>444</ele>
        <time>2025-04-06T08:50:57.000Z</time>
      </trkpt>
      <trkpt lat="43.35605" lon="6.14741">
        <ele>446</ele>
        <time>2025-04-06T08:51:17.000Z</time>
      </trkpt>
      <trkpt lat="43.3561" lon="6.14731">
        <ele>445</ele>
        <time>2025-04-06T08:51:25.000Z</time>
      </trkpt>
      <trkpt lat="43.35611" lon="6.14716">
        <ele>444</ele>
        <time>2025-04-06T08:51:35.000Z</time>
      </trkpt>
      <trkpt lat="43.35606" lon="6.14692">
        <ele>440</ele>
        <time>2025-04-06T08:51:55.000Z</time>
      </trkpt>
      <trkpt lat="43.35596" lon="6.14673">
        <ele>438</ele>
        <time>2025-04-06T08:52:09.000Z</time>
      </trkpt>
      <trkpt lat="43.35568" lon="6.14646">
        <ele>437</ele>
        <time>2025-04-06T08:52:39.000Z</time>
      </trkpt>
      <trkpt lat="43.35537" lon="6.14619">
        <ele>435</ele>
        <time>2025-04-06T08:53:15.000Z</time>
      </trkpt>
      <trkpt lat="43.35512" lon="6.14589">
        <ele>433</ele>
        <time>2025-04-06T08:53:43.000Z</time>
      </trkpt>
      <trkpt lat="43.35504" lon="6.14575">
        <ele>434</ele>
        <time>2025-04-06T08:53:53.000Z</time>
      </trkpt>
      <trkpt lat="43.35495" lon="6.14558">
        <ele>436</ele>
        <time>2025-04-06T08:54:05.000Z</time>
      </trkpt>
      <trkpt lat="43.35492" lon="6.14546">
        <ele>436</ele>
        <time>2025-04-06T08:54:13.000Z</time>
      </trkpt>
      <trkpt lat="43.35492" lon="6.14526">
        <ele>434</ele>
        <time>2025-04-06T08:54:23.000Z</time>
      </trkpt>
      <trkpt lat="43.35493" lon="6.14513">
        <ele>432</ele>
        <time>2025-04-06T08:54:31.000Z</time>
      </trkpt>
      <trkpt lat="43.35517" lon="6.14482">
        <ele>430</ele>
        <time>2025-04-06T08:54:59.000Z</time>
      </trkpt>
      <trkpt lat="43.35554" lon="6.14471">
        <ele>428</ele>
        <time>2025-04-06T08:55:33.000Z</time>
      </trkpt>
      <trkpt lat="43.35574" lon="6.14467">
        <ele>428</ele>
        <time>2025-04-06T08:55:51.000Z</time>
      </trkpt>
      <trkpt lat="43.35601" lon="6.14465">
        <ele>425</ele>
        <time>2025-04-06T08:56:13.000Z</time>
      </trkpt>
      <trkpt lat="43.35609" lon="6.14457">
        <ele>424</ele>
        <time>2025-04-06T08:56:25.000Z</time>
      </trkpt>
      <trkpt lat="43.35609" lon="6.14445">
        <ele>424</ele>
        <time>2025-04-06T08:56:33.000Z</time>
      </trkpt>
      <trkpt lat="43.35601" lon="6.14424">
        <ele>422</ele>
        <time>2025-04-06T08:57:03.000Z</time>
      </trkpt>
      <trkpt lat="43.35592" lon="6.14385">
        <ele>419</ele>
        <time>2025-04-06T08:57:25.000Z</time>
      </trkpt>
      <trkpt lat="43.35595" lon="6.14362">
        <ele>418</ele>
        <time>2025-04-06T08:57:39.000Z</time>
      </trkpt>
      <trkpt lat="43.35594" lon="6.14349">
        <ele>417</ele>
        <time>2025-04-06T08:57:47.000Z</time>
      </trkpt>
      <trkpt lat="43.35576" lon="6.14334">
        <ele>417</ele>
        <time>2025-04-06T08:58:13.000Z</time>
      </trkpt>
      <trkpt lat="43.35545" lon="6.14326">
        <ele>417</ele>
        <time>2025-04-06T08:58:35.000Z</time>
      </trkpt>
      <trkpt lat="43.35538" lon="6.14321">
        <ele>415</ele>
        <time>2025-04-06T08:58:43.000Z</time>
      </trkpt>
      <trkpt lat="43.3553" lon="6.14319">
        <ele>415</ele>
        <time>2025-04-06T08:58:49.000Z</time>
      </trkpt>
      <trkpt lat="43.35516" lon="6.14308">
        <ele>414</ele>
        <time>2025-04-06T08:59:03.000Z</time>
      </trkpt>
      <trkpt lat="43.35481" lon="6.14287">
        <ele>411</ele>
        <time>2025-04-06T08:59:35.000Z</time>
      </trkpt>
      <trkpt lat="43.3546" lon="6.14267">
        <ele>411</ele>
        <time>2025-04-06T08:59:55.000Z</time>
      </trkpt>
      <trkpt lat="43.35448" lon="6.14247">
        <ele>411</ele>
        <time>2025-04-06T09:00:11.000Z</time>
      </trkpt>
      <trkpt lat="43.35447" lon="6.14232">
        <ele>409</ele>
        <time>2025-04-06T09:00:21.000Z</time>
      </trkpt>
      <trkpt lat="43.3545" lon="6.14219">
        <ele>411</ele>
        <time>2025-04-06T09:00:47.000Z</time>
      </trkpt>
      <trkpt lat="43.3548" lon="6.14163">
        <ele>410</ele>
        <time>2025-04-06T09:01:27.000Z</time>
      </trkpt>
      <trkpt lat="43.35492" lon="6.14148">
        <ele>410</ele>
        <time>2025-04-06T09:01:41.000Z</time>
      </trkpt>
      <trkpt lat="43.35497" lon="6.14139">
        <ele>409</ele>
        <time>2025-04-06T09:01:49.000Z</time>
      </trkpt>
      <trkpt lat="43.35513" lon="6.14123">
        <ele>409</ele>
        <time>2025-04-06T09:02:03.000Z</time>
      </trkpt>
      <trkpt lat="43.3552" lon="6.14117">
        <ele>407</ele>
        <time>2025-04-06T09:02:11.000Z</time>
      </trkpt>
      <trkpt lat="43.35535" lon="6.14106">
        <ele>405</ele>
        <time>2025-04-06T09:02:25.000Z</time>
      </trkpt>
      <trkpt lat="43.35541" lon="6.14093">
        <ele>402</ele>
        <time>2025-04-06T09:02:37.000Z</time>
      </trkpt>
      <trkpt lat="43.35535" lon="6.14082">
        <ele>404</ele>
        <time>2025-04-06T09:03:47.000Z</time>
      </trkpt>
      <trkpt lat="43.35525" lon="6.14073">
        <ele>401</ele>
        <time>2025-04-06T09:03:57.000Z</time>
      </trkpt>
      <trkpt lat="43.35515" lon="6.14065">
        <ele>399</ele>
        <time>2025-04-06T09:04:07.000Z</time>
      </trkpt>
      <trkpt lat="43.35504" lon="6.14049">
        <ele>398</ele>
        <time>2025-04-06T09:04:21.000Z</time>
      </trkpt>
      <trkpt lat="43.35485" lon="6.1403">
        <ele>396</ele>
        <time>2025-04-06T09:04:41.000Z</time>
      </trkpt>
      <trkpt lat="43.35456" lon="6.13995">
        <ele>396</ele>
        <time>2025-04-06T09:05:11.000Z</time>
      </trkpt>
      <trkpt lat="43.3545" lon="6.13978">
        <ele>396</ele>
        <time>2025-04-06T09:05:23.000Z</time>
      </trkpt>
      <trkpt lat="43.35448" lon="6.13967">
        <ele>395</ele>
        <time>2025-04-06T09:05:29.000Z</time>
      </trkpt>
      <trkpt lat="43.35451" lon="6.13942">
        <ele>394</ele>
        <time>2025-04-06T09:05:45.000Z</time>
      </trkpt>
      <trkpt lat="43.35462" lon="6.13926">
        <ele>393</ele>
        <time>2025-04-06T09:05:57.000Z</time>
      </trkpt>
      <trkpt lat="43.35463" lon="6.13906">
        <ele>391</ele>
        <time>2025-04-06T09:06:09.000Z</time>
      </trkpt>
      <trkpt lat="43.35456" lon="6.13896">
        <ele>393</ele>
        <time>2025-04-06T09:06:17.000Z</time>
      </trkpt>
      <trkpt lat="43.35426" lon="6.13887">
        <ele>394</ele>
        <time>2025-04-06T09:06:41.000Z</time>
      </trkpt>
      <trkpt lat="43.35418" lon="6.13884">
        <ele>396</ele>
        <time>2025-04-06T09:06:47.000Z</time>
      </trkpt>
      <trkpt lat="43.35412" lon="6.13878">
        <ele>396</ele>
        <time>2025-04-06T09:06:55.000Z</time>
      </trkpt>
      <trkpt lat="43.35386" lon="6.13865">
        <ele>395</ele>
        <time>2025-04-06T09:07:21.000Z</time>
      </trkpt>
      <trkpt lat="43.35357" lon="6.13831">
        <ele>394</ele>
        <time>2025-04-06T09:07:49.000Z</time>
      </trkpt>
      <trkpt lat="43.35348" lon="6.13817">
        <ele>390</ele>
        <time>2025-04-06T09:08:01.000Z</time>
      </trkpt>
      <trkpt lat="43.35341" lon="6.1381">
        <ele>388</ele>
        <time>2025-04-06T09:08:07.000Z</time>
      </trkpt>
      <trkpt lat="43.35334" lon="6.1379">
        <ele>389</ele>
        <time>2025-04-06T09:08:21.000Z</time>
      </trkpt>
      <trkpt lat="43.3533" lon="6.13781">
        <ele>389</ele>
        <time>2025-04-06T09:08:27.000Z</time>
      </trkpt>
      <trkpt lat="43.35314" lon="6.13732">
        <ele>388</ele>
        <time>2025-04-06T09:08:57.000Z</time>
      </trkpt>
      <trkpt lat="43.3532" lon="6.13709">
        <ele>385</ele>
        <time>2025-04-06T09:09:13.000Z</time>
      </trkpt>
      <trkpt lat="43.3533" lon="6.13711">
        <ele>386</ele>
        <time>2025-04-06T09:10:21.000Z</time>
      </trkpt>
      <trkpt lat="43.35337" lon="6.13719">
        <ele>389</ele>
        <time>2025-04-06T09:10:27.000Z</time>
      </trkpt>
      <trkpt lat="43.35347" lon="6.13735">
        <ele>393</ele>
        <time>2025-04-06T09:10:41.000Z</time>
      </trkpt>
      <trkpt lat="43.35375" lon="6.13753">
        <ele>396</ele>
        <time>2025-04-06T09:11:13.000Z</time>
      </trkpt>
      <trkpt lat="43.35383" lon="6.13756">
        <ele>396</ele>
        <time>2025-04-06T09:11:21.000Z</time>
      </trkpt>
      <trkpt lat="43.3539" lon="6.1376">
        <ele>398</ele>
        <time>2025-04-06T09:11:31.000Z</time>
      </trkpt>
      <trkpt lat="43.35422" lon="6.1379">
        <ele>397</ele>
        <time>2025-04-06T09:12:05.000Z</time>
      </trkpt>
      <trkpt lat="43.35438" lon="6.13801">
        <ele>397</ele>
        <time>2025-04-06T09:12:19.000Z</time>
      </trkpt>
      <trkpt lat="43.35466" lon="6.13831">
        <ele>397</ele>
        <time>2025-04-06T09:12:51.000Z</time>
      </trkpt>
      <trkpt lat="43.35487" lon="6.1385">
        <ele>397</ele>
        <time>2025-04-06T09:13:13.000Z</time>
      </trkpt>
      <trkpt lat="43.35504" lon="6.13865">
        <ele>400</ele>
        <time>2025-04-06T09:13:31.000Z</time>
      </trkpt>
      <trkpt lat="43.35522" lon="6.13889">
        <ele>403</ele>
        <time>2025-04-06T09:13:53.000Z</time>
      </trkpt>
      <trkpt lat="43.3553" lon="6.139">
        <ele>405</ele>
        <time>2025-04-06T09:14:03.000Z</time>
      </trkpt>
      <trkpt lat="43.3554" lon="6.13904">
        <ele>406</ele>
        <time>2025-04-06T09:14:11.000Z</time>
      </trkpt>
      <trkpt lat="43.35549" lon="6.13934">
        <ele>408</ele>
        <time>2025-04-06T09:14:37.000Z</time>
      </trkpt>
      <trkpt lat="43.35567" lon="6.13971">
        <ele>411</ele>
        <time>2025-04-06T09:15:11.000Z</time>
      </trkpt>
      <trkpt lat="43.35571" lon="6.13994">
        <ele>412</ele>
        <time>2025-04-06T09:15:31.000Z</time>
      </trkpt>
      <trkpt lat="43.35584" lon="6.14013">
        <ele>414</ele>
        <time>2025-04-06T09:15:51.000Z</time>
      </trkpt>
      <trkpt lat="43.3559" lon="6.14028">
        <ele>414</ele>
        <time>2025-04-06T09:16:05.000Z</time>
      </trkpt>
      <trkpt lat="43.35618" lon="6.1404">
        <ele>416</ele>
        <time>2025-04-06T09:16:37.000Z</time>
      </trkpt>
      <trkpt lat="43.35626" lon="6.14047">
        <ele>417</ele>
        <time>2025-04-06T09:16:47.000Z</time>
      </trkpt>
      <trkpt lat="43.35634" lon="6.14049">
        <ele>418</ele>
        <time>2025-04-06T09:16:57.000Z</time>
      </trkpt>
      <trkpt lat="43.35641" lon="6.14053">
        <ele>420</ele>
        <time>2025-04-06T09:17:05.000Z</time>
      </trkpt>
      <trkpt lat="43.35647" lon="6.1406">
        <ele>422</ele>
        <time>2025-04-06T09:17:15.000Z</time>
      </trkpt>
      <trkpt lat="43.35662" lon="6.14073">
        <ele>427</ele>
        <time>2025-04-06T09:17:35.000Z</time>
      </trkpt>
      <trkpt lat="43.35682" lon="6.14098">
        <ele>430</ele>
        <time>2025-04-06T09:18:07.000Z</time>
      </trkpt>
      <trkpt lat="43.35685" lon="6.14108">
        <ele>431</ele>
        <time>2025-04-06T09:18:15.000Z</time>
      </trkpt>
      <trkpt lat="43.35699" lon="6.14148">
        <ele>434</ele>
        <time>2025-04-06T09:18:51.000Z</time>
      </trkpt>
      <trkpt lat="43.35706" lon="6.14161">
        <ele>441</ele>
        <time>2025-04-06T09:19:07.000Z</time>
      </trkpt>
      <trkpt lat="43.3572" lon="6.14201">
        <ele>442</ele>
        <time>2025-04-06T09:19:47.000Z</time>
      </trkpt>
      <trkpt lat="43.35721" lon="6.14212">
        <ele>441</ele>
        <time>2025-04-06T09:19:55.000Z</time>
      </trkpt>
      <trkpt lat="43.3573" lon="6.14233">
        <ele>440</ele>
        <time>2025-04-06T09:20:15.000Z</time>
      </trkpt>
      <trkpt lat="43.35732" lon="6.14257">
        <ele>441</ele>
        <time>2025-04-06T09:20:33.000Z</time>
      </trkpt>
      <trkpt lat="43.35743" lon="6.14297">
        <ele>446</ele>
        <time>2025-04-06T09:21:05.000Z</time>
      </trkpt>
      <trkpt lat="43.35745" lon="6.14307">
        <ele>447</ele>
        <time>2025-04-06T09:21:13.000Z</time>
      </trkpt>
      <trkpt lat="43.35757" lon="6.14342">
        <ele>451</ele>
        <time>2025-04-06T09:21:43.000Z</time>
      </trkpt>
      <trkpt lat="43.35761" lon="6.14352">
        <ele>453</ele>
        <time>2025-04-06T09:21:53.000Z</time>
      </trkpt>
      <trkpt lat="43.35768" lon="6.14372">
        <ele>456</ele>
        <time>2025-04-06T09:22:09.000Z</time>
      </trkpt>
      <trkpt lat="43.3577" lon="6.14394">
        <ele>454</ele>
        <time>2025-04-06T09:22:25.000Z</time>
      </trkpt>
      <trkpt lat="43.35775" lon="6.14408">
        <ele>459</ele>
        <time>2025-04-06T09:22:35.000Z</time>
      </trkpt>
      <trkpt lat="43.35776" lon="6.14419">
        <ele>461</ele>
        <time>2025-04-06T09:22:43.000Z</time>
      </trkpt>
      <trkpt lat="43.35777" lon="6.14429">
        <ele>463</ele>
        <time>2025-04-06T09:22:51.000Z</time>
      </trkpt>
      <trkpt lat="43.35782" lon="6.14443">
        <ele>466</ele>
        <time>2025-04-06T09:23:01.000Z</time>
      </trkpt>
      <trkpt lat="43.35788" lon="6.1447">
        <ele>470</ele>
        <time>2025-04-06T09:23:21.000Z</time>
      </trkpt>
      <trkpt lat="43.35787" lon="6.1448">
        <ele>472</ele>
        <time>2025-04-06T09:23:29.000Z</time>
      </trkpt>
      <trkpt lat="43.35793" lon="6.14505">
        <ele>474</ele>
        <time>2025-04-06T09:23:49.000Z</time>
      </trkpt>
      <trkpt lat="43.35794" lon="6.14517">
        <ele>480</ele>
        <time>2025-04-06T09:23:59.000Z</time>
      </trkpt>
      <trkpt lat="43.35794" lon="6.14542">
        <ele>482</ele>
        <time>2025-04-06T09:24:15.000Z</time>
      </trkpt>
      <trkpt lat="43.35805" lon="6.14589">
        <ele>481</ele>
        <time>2025-04-06T09:24:51.000Z</time>
      </trkpt>
      <trkpt lat="43.35805" lon="6.14599">
        <ele>481</ele>
        <time>2025-04-06T09:24:57.000Z</time>
      </trkpt>
      <trkpt lat="43.35808" lon="6.14613">
        <ele>484</ele>
        <time>2025-04-06T09:25:07.000Z</time>
      </trkpt>
      <trkpt lat="43.35811" lon="6.14646">
        <ele>496</ele>
        <time>2025-04-06T09:25:29.000Z</time>
      </trkpt>
      <trkpt lat="43.35818" lon="6.14643">
        <ele>496</ele>
        <time>2025-04-06T09:25:49.000Z</time>
      </trkpt>
      <trkpt lat="43.35822" lon="6.14638">
        <ele>498</ele>
        <time>2025-04-06T09:32:01.000Z</time>
      </trkpt>
      <trkpt lat="43.3582" lon="6.14628">
        <ele>498</ele>
        <time>2025-04-06T09:33:07.000Z</time>
      </trkpt>
      <trkpt lat="43.35824" lon="6.14608">
        <ele>500</ele>
        <time>2025-04-06T09:33:19.000Z</time>
      </trkpt>
      <trkpt lat="43.35822" lon="6.14594">
        <ele>501</ele>
        <time>2025-04-06T09:33:31.000Z</time>
      </trkpt>
      <trkpt lat="43.35834" lon="6.14566">
        <ele>496</ele>
        <time>2025-04-06T09:33:53.000Z</time>
      </trkpt>
      <trkpt lat="43.35835" lon="6.14554">
        <ele>498</ele>
        <time>2025-04-06T09:34:03.000Z</time>
      </trkpt>
      <trkpt lat="43.35838" lon="6.14539">
        <ele>500</ele>
        <time>2025-04-06T09:34:15.000Z</time>
      </trkpt>
      <trkpt lat="43.35844" lon="6.1453">
        <ele>499</ele>
        <time>2025-04-06T09:34:25.000Z</time>
      </trkpt>
      <trkpt lat="43.35845" lon="6.14518">
        <ele>499</ele>
        <time>2025-04-06T09:34:33.000Z</time>
      </trkpt>
      <trkpt lat="43.35849" lon="6.14509">
        <ele>499</ele>
        <time>2025-04-06T09:34:39.000Z</time>
      </trkpt>
      <trkpt lat="43.3585" lon="6.14484">
        <ele>495</ele>
        <time>2025-04-06T09:34:55.000Z</time>
      </trkpt>
      <trkpt lat="43.35858" lon="6.1448">
        <ele>499</ele>
        <time>2025-04-06T09:35:07.000Z</time>
      </trkpt>
      <trkpt lat="43.3586" lon="6.14493">
        <ele>505</ele>
        <time>2025-04-06T09:35:17.000Z</time>
      </trkpt>
      <trkpt lat="43.35864" lon="6.14505">
        <ele>509</ele>
        <time>2025-04-06T09:35:27.000Z</time>
      </trkpt>
      <trkpt lat="43.35859" lon="6.14559">
        <ele>510</ele>
        <time>2025-04-06T09:36:01.000Z</time>
      </trkpt>
      <trkpt lat="43.35858" lon="6.14575">
        <ele>510</ele>
        <time>2025-04-06T09:36:11.000Z</time>
      </trkpt>
      <trkpt lat="43.3586" lon="6.1461">
        <ele>512</ele>
        <time>2025-04-06T09:36:29.000Z</time>
      </trkpt>
      <trkpt lat="43.35863" lon="6.1462">
        <ele>512</ele>
        <time>2025-04-06T09:36:37.000Z</time>
      </trkpt>
      <trkpt lat="43.35875" lon="6.14639">
        <ele>514</ele>
        <time>2025-04-06T09:36:57.000Z</time>
      </trkpt>
      <trkpt lat="43.35878" lon="6.14651">
        <ele>515</ele>
        <time>2025-04-06T09:37:07.000Z</time>
      </trkpt>
      <trkpt lat="43.35879" lon="6.14664">
        <ele>518</ele>
        <time>2025-04-06T09:37:17.000Z</time>
      </trkpt>
      <trkpt lat="43.35878" lon="6.14677">
        <ele>521</ele>
        <time>2025-04-06T09:37:23.000Z</time>
      </trkpt>
      <trkpt lat="43.35881" lon="6.14688">
        <ele>523</ele>
        <time>2025-04-06T09:37:31.000Z</time>
      </trkpt>
      <trkpt lat="43.35891" lon="6.1471">
        <ele>523</ele>
        <time>2025-04-06T09:38:07.000Z</time>
      </trkpt>
      <trkpt lat="43.35893" lon="6.14722">
        <ele>525</ele>
        <time>2025-04-06T09:38:19.000Z</time>
      </trkpt>
      <trkpt lat="43.359" lon="6.14732">
        <ele>526</ele>
        <time>2025-04-06T09:38:27.000Z</time>
      </trkpt>
      <trkpt lat="43.35908" lon="6.14742">
        <ele>529</ele>
        <time>2025-04-06T09:38:37.000Z</time>
      </trkpt>
      <trkpt lat="43.3591" lon="6.14753">
        <ele>531</ele>
        <time>2025-04-06T09:38:47.000Z</time>
      </trkpt>
      <trkpt lat="43.35919" lon="6.14761">
        <ele>532</ele>
        <time>2025-04-06T09:38:55.000Z</time>
      </trkpt>
      <trkpt lat="43.35925" lon="6.14774">
        <ele>535</ele>
        <time>2025-04-06T09:39:07.000Z</time>
      </trkpt>
      <trkpt lat="43.35943" lon="6.14796">
        <ele>539</ele>
        <time>2025-04-06T09:39:41.000Z</time>
      </trkpt>
      <trkpt lat="43.3595" lon="6.14806">
        <ele>542</ele>
        <time>2025-04-06T09:39:55.000Z</time>
      </trkpt>
      <trkpt lat="43.35956" lon="6.14815">
        <ele>545</ele>
        <time>2025-04-06T09:40:03.000Z</time>
      </trkpt>
      <trkpt lat="43.35962" lon="6.14821">
        <ele>548</ele>
        <time>2025-04-06T09:40:15.000Z</time>
      </trkpt>
      <trkpt lat="43.35966" lon="6.14831">
        <ele>550</ele>
        <time>2025-04-06T09:40:25.000Z</time>
      </trkpt>
      <trkpt lat="43.35969" lon="6.14844">
        <ele>549</ele>
        <time>2025-04-06T09:40:33.000Z</time>
      </trkpt>
      <trkpt lat="43.35981" lon="6.14858">
        <ele>547</ele>
        <time>2025-04-06T09:40:49.000Z</time>
      </trkpt>
      <trkpt lat="43.35992" lon="6.14872">
        <ele>545</ele>
        <time>2025-04-06T09:41:05.000Z</time>
      </trkpt>
      <trkpt lat="43.35997" lon="6.14882">
        <ele>546</ele>
        <time>2025-04-06T09:41:15.000Z</time>
      </trkpt>
      <trkpt lat="43.36002" lon="6.14888">
        <ele>547</ele>
        <time>2025-04-06T09:41:23.000Z</time>
      </trkpt>
      <trkpt lat="43.36003" lon="6.149">
        <ele>547</ele>
        <time>2025-04-06T09:41:33.000Z</time>
      </trkpt>
      <trkpt lat="43.36014" lon="6.14912">
        <ele>549</ele>
        <time>2025-04-06T09:41:45.000Z</time>
      </trkpt>
      <trkpt lat="43.36032" lon="6.14929">
        <ele>552</ele>
        <time>2025-04-06T09:42:07.000Z</time>
      </trkpt>
      <trkpt lat="43.36038" lon="6.14935">
        <ele>554</ele>
        <time>2025-04-06T09:42:13.000Z</time>
      </trkpt>
      <trkpt lat="43.36045" lon="6.14952">
        <ele>557</ele>
        <time>2025-04-06T09:42:27.000Z</time>
      </trkpt>
      <trkpt lat="43.36055" lon="6.14959">
        <ele>559</ele>
        <time>2025-04-06T09:42:37.000Z</time>
      </trkpt>
      <trkpt lat="43.36068" lon="6.14983">
        <ele>561</ele>
        <time>2025-04-06T09:42:59.000Z</time>
      </trkpt>
      <trkpt lat="43.36086" lon="6.15009">
        <ele>561</ele>
        <time>2025-04-06T09:43:27.000Z</time>
      </trkpt>
      <trkpt lat="43.361" lon="6.15024">
        <ele>560</ele>
        <time>2025-04-06T09:43:45.000Z</time>
      </trkpt>
      <trkpt lat="43.36109" lon="6.15023">
        <ele>564</ele>
        <time>2025-04-06T09:43:51.000Z</time>
      </trkpt>
      <trkpt lat="43.36113" lon="6.15021">
        <ele>580</ele>
        <time>2025-04-06T09:46:53.000Z</time>
      </trkpt>
      <trkpt lat="43.36119" lon="6.15011">
        <ele>579</ele>
        <time>2025-04-06T09:51:19.000Z</time>
      </trkpt>
      <trkpt lat="43.36127" lon="6.15009">
        <ele>583</ele>
        <time>2025-04-06T09:51:31.000Z</time>
      </trkpt>
      <trkpt lat="43.36135" lon="6.15012">
        <ele>585</ele>
        <time>2025-04-06T09:51:41.000Z</time>
      </trkpt>
      <trkpt lat="43.36154" lon="6.15014">
        <ele>586</ele>
        <time>2025-04-06T09:52:07.000Z</time>
      </trkpt>
      <trkpt lat="43.36163" lon="6.15019">
        <ele>592</ele>
        <time>2025-04-06T09:52:21.000Z</time>
      </trkpt>
      <trkpt lat="43.36168" lon="6.15009">
        <ele>590</ele>
        <time>2025-04-06T09:54:19.000Z</time>
      </trkpt>
      <trkpt lat="43.36172" lon="6.15">
        <ele>588</ele>
        <time>2025-04-06T09:54:29.000Z</time>
      </trkpt>
      <trkpt lat="43.36165" lon="6.14972">
        <ele>586</ele>
        <time>2025-04-06T09:54:49.000Z</time>
      </trkpt>
      <trkpt lat="43.36161" lon="6.14964">
        <ele>586</ele>
        <time>2025-04-06T09:54:57.000Z</time>
      </trkpt>
      <trkpt lat="43.36155" lon="6.14962">
        <ele>590</ele>
        <time>2025-04-06T09:55:45.000Z</time>
      </trkpt>
      <trkpt lat="43.36147" lon="6.14957">
        <ele>590</ele>
        <time>2025-04-06T09:55:55.000Z</time>
      </trkpt>
      <trkpt lat="43.36137" lon="6.14952">
        <ele>592</ele>
        <time>2025-04-06T09:56:07.000Z</time>
      </trkpt>
      <trkpt lat="43.36133" lon="6.14933">
        <ele>593</ele>
        <time>2025-04-06T09:56:27.000Z</time>
      </trkpt>
      <trkpt lat="43.36133" lon="6.14921">
        <ele>596</ele>
        <time>2025-04-06T09:56:37.000Z</time>
      </trkpt>
      <trkpt lat="43.36132" lon="6.14911">
        <ele>597</ele>
        <time>2025-04-06T09:56:45.000Z</time>
      </trkpt>
      <trkpt lat="43.36126" lon="6.149">
        <ele>597</ele>
        <time>2025-04-06T09:56:55.000Z</time>
      </trkpt>
      <trkpt lat="43.36117" lon="6.14903">
        <ele>598</ele>
        <time>2025-04-06T09:57:27.000Z</time>
      </trkpt>
      <trkpt lat="43.36122" lon="6.14917">
        <ele>599</ele>
        <time>2025-04-06T09:57:47.000Z</time>
      </trkpt>
      <trkpt lat="43.36114" lon="6.14916">
        <ele>599</ele>
        <time>2025-04-06T09:58:07.000Z</time>
      </trkpt>
      <trkpt lat="43.36114" lon="6.14926">
        <ele>600</ele>
        <time>2025-04-06T09:58:25.000Z</time>
      </trkpt>
      <trkpt lat="43.36122" lon="6.14931">
        <ele>606</ele>
        <time>2025-04-06T09:58:39.000Z</time>
      </trkpt>
      <trkpt lat="43.36119" lon="6.14896">
        <ele>606</ele>
        <time>2025-04-06T09:59:13.000Z</time>
      </trkpt>
      <trkpt lat="43.36109" lon="6.149">
        <ele>598</ele>
        <time>2025-04-06T10:02:35.000Z</time>
      </trkpt>
      <trkpt lat="43.361" lon="6.14903">
        <ele>599</ele>
        <time>2025-04-06T10:03:01.000Z</time>
      </trkpt>
      <trkpt lat="43.36091" lon="6.1491">
        <ele>601</ele>
        <time>2025-04-06T10:04:01.000Z</time>
      </trkpt>
      <trkpt lat="43.36089" lon="6.14921">
        <ele>602</ele>
        <time>2025-04-06T10:04:15.000Z</time>
      </trkpt>
      <trkpt lat="43.36085" lon="6.14929">
        <ele>602</ele>
        <time>2025-04-06T10:10:13.000Z</time>
      </trkpt>
      <trkpt lat="43.36086" lon="6.14928">
        <ele>602</ele>
        <time>2025-04-06T10:39:19.000Z</time>
      </trkpt>
      <trkpt lat="43.36091" lon="6.14929">
        <ele>606</ele>
        <time>2025-04-06T10:53:59.000Z</time>
      </trkpt>
      <trkpt lat="43.36091" lon="6.14928">
        <ele>609</ele>
        <time>2025-04-06T10:59:41.000Z</time>
      </trkpt>
      <trkpt lat="43.36085" lon="6.14921">
        <ele>603</ele>
        <time>2025-04-06T11:03:55.000Z</time>
      </trkpt>
      <trkpt lat="43.36092" lon="6.14913">
        <ele>604</ele>
        <time>2025-04-06T11:04:59.000Z</time>
      </trkpt>
      <trkpt lat="43.36098" lon="6.14907">
        <ele>603</ele>
        <time>2025-04-06T11:05:17.000Z</time>
      </trkpt>
      <trkpt lat="43.36106" lon="6.14904">
        <ele>601</ele>
        <time>2025-04-06T11:05:37.000Z</time>
      </trkpt>
      <trkpt lat="43.36114" lon="6.14899">
        <ele>601</ele>
        <time>2025-04-06T11:05:51.000Z</time>
      </trkpt>
      <trkpt lat="43.36122" lon="6.14903">
        <ele>598</ele>
        <time>2025-04-06T11:06:33.000Z</time>
      </trkpt>
      <trkpt lat="43.3612" lon="6.14893">
        <ele>600</ele>
        <time>2025-04-06T11:08:41.000Z</time>
      </trkpt>
      <trkpt lat="43.36124" lon="6.14883">
        <ele>596</ele>
        <time>2025-04-06T11:08:55.000Z</time>
      </trkpt>
      <trkpt lat="43.36123" lon="6.14872">
        <ele>595</ele>
        <time>2025-04-06T11:09:09.000Z</time>
      </trkpt>
      <trkpt lat="43.3612" lon="6.14857">
        <ele>598</ele>
        <time>2025-04-06T11:09:25.000Z</time>
      </trkpt>
      <trkpt lat="43.36117" lon="6.14845">
        <ele>600</ele>
        <time>2025-04-06T11:09:45.000Z</time>
      </trkpt>
      <trkpt lat="43.36133" lon="6.14843">
        <ele>595</ele>
        <time>2025-04-06T11:10:25.000Z</time>
      </trkpt>
      <trkpt lat="43.36142" lon="6.14833">
        <ele>591</ele>
        <time>2025-04-06T11:10:53.000Z</time>
      </trkpt>
      <trkpt lat="43.36153" lon="6.14829">
        <ele>591</ele>
        <time>2025-04-06T11:11:05.000Z</time>
      </trkpt>
      <trkpt lat="43.36161" lon="6.14827">
        <ele>589</ele>
        <time>2025-04-06T11:11:17.000Z</time>
      </trkpt>
      <trkpt lat="43.36166" lon="6.14809">
        <ele>589</ele>
        <time>2025-04-06T11:11:35.000Z</time>
      </trkpt>
      <trkpt lat="43.36165" lon="6.14799">
        <ele>586</ele>
        <time>2025-04-06T11:11:43.000Z</time>
      </trkpt>
      <trkpt lat="43.36166" lon="6.14779">
        <ele>584</ele>
        <time>2025-04-06T11:12:03.000Z</time>
      </trkpt>
      <trkpt lat="43.36178" lon="6.1477">
        <ele>583</ele>
        <time>2025-04-06T11:12:35.000Z</time>
      </trkpt>
      <trkpt lat="43.3618" lon="6.14759">
        <ele>580</ele>
        <time>2025-04-06T11:12:47.000Z</time>
      </trkpt>
      <trkpt lat="43.36177" lon="6.14749">
        <ele>578</ele>
        <time>2025-04-06T11:12:57.000Z</time>
      </trkpt>
      <trkpt lat="43.36179" lon="6.14735">
        <ele>576</ele>
        <time>2025-04-06T11:13:11.000Z</time>
      </trkpt>
      <trkpt lat="43.36188" lon="6.14715">
        <ele>576</ele>
        <time>2025-04-06T11:13:35.000Z</time>
      </trkpt>
      <trkpt lat="43.36194" lon="6.1471">
        <ele>576</ele>
        <time>2025-04-06T11:13:45.000Z</time>
      </trkpt>
      <trkpt lat="43.36199" lon="6.14697">
        <ele>576</ele>
        <time>2025-04-06T11:14:01.000Z</time>
      </trkpt>
      <trkpt lat="43.36208" lon="6.14685">
        <ele>571</ele>
        <time>2025-04-06T11:14:21.000Z</time>
      </trkpt>
      <trkpt lat="43.36213" lon="6.14671">
        <ele>567</ele>
        <time>2025-04-06T11:14:41.000Z</time>
      </trkpt>
      <trkpt lat="43.36217" lon="6.14661">
        <ele>563</ele>
        <time>2025-04-06T11:14:55.000Z</time>
      </trkpt>
      <trkpt lat="43.3622" lon="6.14639">
        <ele>562</ele>
        <time>2025-04-06T11:15:19.000Z</time>
      </trkpt>
      <trkpt lat="43.36226" lon="6.14631">
        <ele>562</ele>
        <time>2025-04-06T11:15:29.000Z</time>
      </trkpt>
      <trkpt lat="43.36226" lon="6.14618">
        <ele>560</ele>
        <time>2025-04-06T11:15:41.000Z</time>
      </trkpt>
      <trkpt lat="43.36225" lon="6.14605">
        <ele>558</ele>
        <time>2025-04-06T11:15:55.000Z</time>
      </trkpt>
      <trkpt lat="43.36225" lon="6.14593">
        <ele>556</ele>
        <time>2025-04-06T11:16:07.000Z</time>
      </trkpt>
      <trkpt lat="43.36233" lon="6.14596">
        <ele>552</ele>
        <time>2025-04-06T11:16:23.000Z</time>
      </trkpt>
      <trkpt lat="43.36237" lon="6.14606">
        <ele>550</ele>
        <time>2025-04-06T11:16:33.000Z</time>
      </trkpt>
      <trkpt lat="43.36242" lon="6.14614">
        <ele>548</ele>
        <time>2025-04-06T11:16:43.000Z</time>
      </trkpt>
      <trkpt lat="43.3625" lon="6.14619">
        <ele>546</ele>
        <time>2025-04-06T11:16:53.000Z</time>
      </trkpt>
      <trkpt lat="43.36255" lon="6.14627">
        <ele>545</ele>
        <time>2025-04-06T11:17:05.000Z</time>
      </trkpt>
      <trkpt lat="43.36257" lon="6.14639">
        <ele>545</ele>
        <time>2025-04-06T11:17:15.000Z</time>
      </trkpt>
      <trkpt lat="43.36262" lon="6.14648">
        <ele>542</ele>
        <time>2025-04-06T11:17:27.000Z</time>
      </trkpt>
      <trkpt lat="43.36265" lon="6.1466">
        <ele>541</ele>
        <time>2025-04-06T11:17:41.000Z</time>
      </trkpt>
      <trkpt lat="43.36269" lon="6.14672">
        <ele>539</ele>
        <time>2025-04-06T11:17:57.000Z</time>
      </trkpt>
      <trkpt lat="43.36274" lon="6.14705">
        <ele>535</ele>
        <time>2025-04-06T11:18:25.000Z</time>
      </trkpt>
      <trkpt lat="43.36271" lon="6.14717">
        <ele>535</ele>
        <time>2025-04-06T11:18:49.000Z</time>
      </trkpt>
      <trkpt lat="43.36273" lon="6.14728">
        <ele>538</ele>
        <time>2025-04-06T11:19:15.000Z</time>
      </trkpt>
      <trkpt lat="43.36267" lon="6.14761">
        <ele>538</ele>
        <time>2025-04-06T11:19:41.000Z</time>
      </trkpt>
      <trkpt lat="43.36269" lon="6.14775">
        <ele>537</ele>
        <time>2025-04-06T11:19:53.000Z</time>
      </trkpt>
      <trkpt lat="43.36268" lon="6.14788">
        <ele>536</ele>
        <time>2025-04-06T11:20:03.000Z</time>
      </trkpt>
      <trkpt lat="43.36272" lon="6.14798">
        <ele>534</ele>
        <time>2025-04-06T11:20:13.000Z</time>
      </trkpt>
      <trkpt lat="43.36277" lon="6.14806">
        <ele>532</ele>
        <time>2025-04-06T11:20:21.000Z</time>
      </trkpt>
      <trkpt lat="43.36287" lon="6.14824">
        <ele>526</ele>
        <time>2025-04-06T11:20:43.000Z</time>
      </trkpt>
      <trkpt lat="43.36296" lon="6.14856">
        <ele>523</ele>
        <time>2025-04-06T11:21:21.000Z</time>
      </trkpt>
      <trkpt lat="43.36302" lon="6.14847">
        <ele>521</ele>
        <time>2025-04-06T11:21:29.000Z</time>
      </trkpt>
      <trkpt lat="43.36315" lon="6.14814">
        <ele>517</ele>
        <time>2025-04-06T11:22:15.000Z</time>
      </trkpt>
      <trkpt lat="43.36316" lon="6.14803">
        <ele>513</ele>
        <time>2025-04-06T11:22:39.000Z</time>
      </trkpt>
      <trkpt lat="43.36322" lon="6.14794">
        <ele>515</ele>
        <time>2025-04-06T11:23:01.000Z</time>
      </trkpt>
      <trkpt lat="43.3634" lon="6.1476">
        <ele>500</ele>
        <time>2025-04-06T11:23:35.000Z</time>
      </trkpt>
      <trkpt lat="43.36347" lon="6.14743">
        <ele>495</ele>
        <time>2025-04-06T11:23:47.000Z</time>
      </trkpt>
      <trkpt lat="43.36347" lon="6.14731">
        <ele>492</ele>
        <time>2025-04-06T11:23:55.000Z</time>
      </trkpt>
      <trkpt lat="43.36357" lon="6.14684">
        <ele>487</ele>
        <time>2025-04-06T11:24:27.000Z</time>
      </trkpt>
      <trkpt lat="43.36364" lon="6.14665">
        <ele>487</ele>
        <time>2025-04-06T11:24:45.000Z</time>
      </trkpt>
      <trkpt lat="43.36366" lon="6.1462">
        <ele>483</ele>
        <time>2025-04-06T11:25:15.000Z</time>
      </trkpt>
      <trkpt lat="43.3637" lon="6.14611">
        <ele>482</ele>
        <time>2025-04-06T11:25:21.000Z</time>
      </trkpt>
      <trkpt lat="43.36371" lon="6.14598">
        <ele>480</ele>
        <time>2025-04-06T11:25:31.000Z</time>
      </trkpt>
      <trkpt lat="43.36373" lon="6.14588">
        <ele>478</ele>
        <time>2025-04-06T11:25:37.000Z</time>
      </trkpt>
      <trkpt lat="43.36382" lon="6.1459">
        <ele>475</ele>
        <time>2025-04-06T11:26:03.000Z</time>
      </trkpt>
      <trkpt lat="43.36387" lon="6.14573">
        <ele>474</ele>
        <time>2025-04-06T11:26:19.000Z</time>
      </trkpt>
      <trkpt lat="43.36388" lon="6.14562">
        <ele>473</ele>
        <time>2025-04-06T11:26:29.000Z</time>
      </trkpt>
      <trkpt lat="43.36389" lon="6.14549">
        <ele>470</ele>
        <time>2025-04-06T11:26:41.000Z</time>
      </trkpt>
      <trkpt lat="43.36392" lon="6.14536">
        <ele>465</ele>
        <time>2025-04-06T11:26:51.000Z</time>
      </trkpt>
      <trkpt lat="43.36405" lon="6.14489">
        <ele>461</ele>
        <time>2025-04-06T11:27:27.000Z</time>
      </trkpt>
      <trkpt lat="43.36409" lon="6.14469">
        <ele>458</ele>
        <time>2025-04-06T11:27:41.000Z</time>
      </trkpt>
      <trkpt lat="43.3641" lon="6.14459">
        <ele>456</ele>
        <time>2025-04-06T11:27:49.000Z</time>
      </trkpt>
      <trkpt lat="43.36412" lon="6.14447">
        <ele>452</ele>
        <time>2025-04-06T11:27:57.000Z</time>
      </trkpt>
      <trkpt lat="43.36413" lon="6.14424">
        <ele>449</ele>
        <time>2025-04-06T11:28:13.000Z</time>
      </trkpt>
      <trkpt lat="43.36417" lon="6.14405">
        <ele>447</ele>
        <time>2025-04-06T11:28:25.000Z</time>
      </trkpt>
      <trkpt lat="43.36416" lon="6.14395">
        <ele>446</ele>
        <time>2025-04-06T11:28:33.000Z</time>
      </trkpt>
      <trkpt lat="43.3642" lon="6.14367">
        <ele>443</ele>
        <time>2025-04-06T11:28:57.000Z</time>
      </trkpt>
      <trkpt lat="43.36422" lon="6.14355">
        <ele>441</ele>
        <time>2025-04-06T11:29:03.000Z</time>
      </trkpt>
      <trkpt lat="43.36427" lon="6.14341">
        <ele>438</ele>
        <time>2025-04-06T11:29:13.000Z</time>
      </trkpt>
      <trkpt lat="43.36434" lon="6.1432">
        <ele>434</ele>
        <time>2025-04-06T11:29:31.000Z</time>
      </trkpt>
      <trkpt lat="43.36436" lon="6.1431">
        <ele>433</ele>
        <time>2025-04-06T11:29:37.000Z</time>
      </trkpt>
      <trkpt lat="43.36443" lon="6.14288">
        <ele>429</ele>
        <time>2025-04-06T11:29:53.000Z</time>
      </trkpt>
      <trkpt lat="43.36461" lon="6.14254">
        <ele>424</ele>
        <time>2025-04-06T11:30:23.000Z</time>
      </trkpt>
      <trkpt lat="43.36465" lon="6.14225">
        <ele>420</ele>
        <time>2025-04-06T11:30:41.000Z</time>
      </trkpt>
      <trkpt lat="43.36477" lon="6.1418">
        <ele>417</ele>
        <time>2025-04-06T11:31:17.000Z</time>
      </trkpt>
      <trkpt lat="43.36476" lon="6.14168">
        <ele>415</ele>
        <time>2025-04-06T11:31:23.000Z</time>
      </trkpt>
      <trkpt lat="43.36481" lon="6.14152">
        <ele>411</ele>
        <time>2025-04-06T11:31:37.000Z</time>
      </trkpt>
      <trkpt lat="43.36483" lon="6.1414">
        <ele>411</ele>
        <time>2025-04-06T11:31:45.000Z</time>
      </trkpt>
      <trkpt lat="43.36482" lon="6.14128">
        <ele>410</ele>
        <time>2025-04-06T11:31:55.000Z</time>
      </trkpt>
      <trkpt lat="43.36486" lon="6.14104">
        <ele>408</ele>
        <time>2025-04-06T11:32:11.000Z</time>
      </trkpt>
      <trkpt lat="43.36485" lon="6.14093">
        <ele>407</ele>
        <time>2025-04-06T11:32:21.000Z</time>
      </trkpt>
      <trkpt lat="43.36486" lon="6.14083">
        <ele>406</ele>
        <time>2025-04-06T11:32:35.000Z</time>
      </trkpt>
      <trkpt lat="43.36488" lon="6.14063">
        <ele>401</ele>
        <time>2025-04-06T11:32:47.000Z</time>
      </trkpt>
      <trkpt lat="43.36495" lon="6.14043">
        <ele>398</ele>
        <time>2025-04-06T11:33:07.000Z</time>
      </trkpt>
      <trkpt lat="43.36497" lon="6.14031">
        <ele>398</ele>
        <time>2025-04-06T11:33:15.000Z</time>
      </trkpt>
      <trkpt lat="43.365" lon="6.1402">
        <ele>396</ele>
        <time>2025-04-06T11:33:25.000Z</time>
      </trkpt>
      <trkpt lat="43.36509" lon="6.13993">
        <ele>392</ele>
        <time>2025-04-06T11:33:47.000Z</time>
      </trkpt>
      <trkpt lat="43.36515" lon="6.13987">
        <ele>391</ele>
        <time>2025-04-06T11:33:53.000Z</time>
      </trkpt>
      <trkpt lat="43.36519" lon="6.13978">
        <ele>390</ele>
        <time>2025-04-06T11:34:01.000Z</time>
      </trkpt>
      <trkpt lat="43.36518" lon="6.13952">
        <ele>390</ele>
        <time>2025-04-06T11:34:19.000Z</time>
      </trkpt>
      <trkpt lat="43.36523" lon="6.13955">
        <ele>389</ele>
        <time>2025-04-06T11:35:39.000Z</time>
      </trkpt>
      <trkpt lat="43.36527" lon="6.13951">
        <ele>391</ele>
        <time>2025-04-06T11:38:45.000Z</time>
      </trkpt>
      <trkpt lat="43.3653" lon="6.13959">
        <ele>386</ele>
        <time>2025-04-06T11:40:43.000Z</time>
      </trkpt>
      <trkpt lat="43.36534" lon="6.13971">
        <ele>387</ele>
        <time>2025-04-06T11:40:53.000Z</time>
      </trkpt>
      <trkpt lat="43.36535" lon="6.13991">
        <ele>388</ele>
        <time>2025-04-06T11:41:09.000Z</time>
      </trkpt>
      <trkpt lat="43.36531" lon="6.14035">
        <ele>387</ele>
        <time>2025-04-06T11:41:41.000Z</time>
      </trkpt>
      <trkpt lat="43.36531" lon="6.14057">
        <ele>387</ele>
        <time>2025-04-06T11:41:55.000Z</time>
      </trkpt>
      <trkpt lat="43.36544" lon="6.14104">
        <ele>389</ele>
        <time>2025-04-06T11:42:31.000Z</time>
      </trkpt>
      <trkpt lat="43.36554" lon="6.14155">
        <ele>389</ele>
        <time>2025-04-06T11:43:05.000Z</time>
      </trkpt>
      <trkpt lat="43.36557" lon="6.1418">
        <ele>390</ele>
        <time>2025-04-06T11:43:21.000Z</time>
      </trkpt>
      <trkpt lat="43.36557" lon="6.14214">
        <ele>391</ele>
        <time>2025-04-06T11:43:41.000Z</time>
      </trkpt>
      <trkpt lat="43.36552" lon="6.14266">
        <ele>392</ele>
        <time>2025-04-06T11:44:15.000Z</time>
      </trkpt>
      <trkpt lat="43.36543" lon="6.14302">
        <ele>395</ele>
        <time>2025-04-06T11:44:39.000Z</time>
      </trkpt>
      <trkpt lat="43.36526" lon="6.14349">
        <ele>397</ele>
        <time>2025-04-06T11:45:11.000Z</time>
      </trkpt>
      <trkpt lat="43.36525" lon="6.14359">
        <ele>396</ele>
        <time>2025-04-06T11:45:17.000Z</time>
      </trkpt>
      <trkpt lat="43.36526" lon="6.1437">
        <ele>393</ele>
        <time>2025-04-06T11:45:25.000Z</time>
      </trkpt>
      <trkpt lat="43.3653" lon="6.14379">
        <ele>390</ele>
        <time>2025-04-06T11:45:35.000Z</time>
      </trkpt>
      <trkpt lat="43.3653" lon="6.14389">
        <ele>388</ele>
        <time>2025-04-06T11:45:45.000Z</time>
      </trkpt>
      <trkpt lat="43.36532" lon="6.14401">
        <ele>386</ele>
        <time>2025-04-06T11:45:53.000Z</time>
      </trkpt>
      <trkpt lat="43.36539" lon="6.14414">
        <ele>388</ele>
        <time>2025-04-06T11:46:03.000Z</time>
      </trkpt>
      <trkpt lat="43.36544" lon="6.14427">
        <ele>390</ele>
        <time>2025-04-06T11:46:13.000Z</time>
      </trkpt>
      <trkpt lat="43.36546" lon="6.14457">
        <ele>390</ele>
        <time>2025-04-06T11:46:31.000Z</time>
      </trkpt>
      <trkpt lat="43.36543" lon="6.14482">
        <ele>391</ele>
        <time>2025-04-06T11:46:49.000Z</time>
      </trkpt>
      <trkpt lat="43.36534" lon="6.14516">
        <ele>392</ele>
        <time>2025-04-06T11:47:11.000Z</time>
      </trkpt>
      <trkpt lat="43.36536" lon="6.14576">
        <ele>392</ele>
        <time>2025-04-06T11:47:49.000Z</time>
      </trkpt>
      <trkpt lat="43.36535" lon="6.1459">
        <ele>395</ele>
        <time>2025-04-06T11:47:59.000Z</time>
      </trkpt>
      <trkpt lat="43.36537" lon="6.14603">
        <ele>397</ele>
        <time>2025-04-06T11:48:07.000Z</time>
      </trkpt>
      <trkpt lat="43.36537" lon="6.14618">
        <ele>400</ele>
        <time>2025-04-06T11:48:17.000Z</time>
      </trkpt>
      <trkpt lat="43.36535" lon="6.14633">
        <ele>402</ele>
        <time>2025-04-06T11:48:27.000Z</time>
      </trkpt>
      <trkpt lat="43.36533" lon="6.14643">
        <ele>401</ele>
        <time>2025-04-06T11:48:35.000Z</time>
      </trkpt>
      <trkpt lat="43.36529" lon="6.14654">
        <ele>399</ele>
        <time>2025-04-06T11:48:43.000Z</time>
      </trkpt>
      <trkpt lat="43.36531" lon="6.14671">
        <ele>398</ele>
        <time>2025-04-06T11:48:53.000Z</time>
      </trkpt>
      <trkpt lat="43.36528" lon="6.14681">
        <ele>399</ele>
        <time>2025-04-06T11:48:59.000Z</time>
      </trkpt>
      <trkpt lat="43.36531" lon="6.14691">
        <ele>400</ele>
        <time>2025-04-06T11:49:05.000Z</time>
      </trkpt>
      <trkpt lat="43.36535" lon="6.1474">
        <ele>399</ele>
        <time>2025-04-06T11:49:39.000Z</time>
      </trkpt>
      <trkpt lat="43.36536" lon="6.14753">
        <ele>403</ele>
        <time>2025-04-06T11:49:47.000Z</time>
      </trkpt>
      <trkpt lat="43.36537" lon="6.14766">
        <ele>406</ele>
        <time>2025-04-06T11:49:55.000Z</time>
      </trkpt>
      <trkpt lat="43.36537" lon="6.14778">
        <ele>408</ele>
        <time>2025-04-06T11:50:05.000Z</time>
      </trkpt>
      <trkpt lat="43.36541" lon="6.1479">
        <ele>409</ele>
        <time>2025-04-06T11:50:13.000Z</time>
      </trkpt>
      <trkpt lat="43.36548" lon="6.14831">
        <ele>410</ele>
        <time>2025-04-06T11:50:43.000Z</time>
      </trkpt>
      <trkpt lat="43.36554" lon="6.14872">
        <ele>410</ele>
        <time>2025-04-06T11:51:11.000Z</time>
      </trkpt>
      <trkpt lat="43.36558" lon="6.1488">
        <ele>414</ele>
        <time>2025-04-06T11:51:17.000Z</time>
      </trkpt>
      <trkpt lat="43.36562" lon="6.14936">
        <ele>411</ele>
        <time>2025-04-06T11:51:53.000Z</time>
      </trkpt>
      <trkpt lat="43.36567" lon="6.14959">
        <ele>412</ele>
        <time>2025-04-06T11:52:07.000Z</time>
      </trkpt>
      <trkpt lat="43.3657" lon="6.14975">
        <ele>414</ele>
        <time>2025-04-06T11:52:17.000Z</time>
      </trkpt>
      <trkpt lat="43.3657" lon="6.14988">
        <ele>414</ele>
        <time>2025-04-06T11:52:25.000Z</time>
      </trkpt>
      <trkpt lat="43.36572" lon="6.14998">
        <ele>415</ele>
        <time>2025-04-06T11:52:31.000Z</time>
      </trkpt>
      <trkpt lat="43.3657" lon="6.15011">
        <ele>416</ele>
        <time>2025-04-06T11:52:39.000Z</time>
      </trkpt>
      <trkpt lat="43.36571" lon="6.15025">
        <ele>417</ele>
        <time>2025-04-06T11:52:47.000Z</time>
      </trkpt>
      <trkpt lat="43.36568" lon="6.15061">
        <ele>418</ele>
        <time>2025-04-06T11:53:09.000Z</time>
      </trkpt>
      <trkpt lat="43.36571" lon="6.15075">
        <ele>417</ele>
        <time>2025-04-06T11:53:19.000Z</time>
      </trkpt>
      <trkpt lat="43.3657" lon="6.15086">
        <ele>415</ele>
        <time>2025-04-06T11:53:29.000Z</time>
      </trkpt>
      <trkpt lat="43.36561" lon="6.15093">
        <ele>418</ele>
        <time>2025-04-06T11:53:39.000Z</time>
      </trkpt>
      <trkpt lat="43.36553" lon="6.15091">
        <ele>421</ele>
        <time>2025-04-06T11:53:55.000Z</time>
      </trkpt>
      <trkpt lat="43.36551" lon="6.15081">
        <ele>423</ele>
        <time>2025-04-06T11:54:05.000Z</time>
      </trkpt>
      <trkpt lat="43.36553" lon="6.15069">
        <ele>424</ele>
        <time>2025-04-06T11:54:19.000Z</time>
      </trkpt>
      <trkpt lat="43.36553" lon="6.1503">
        <ele>425</ele>
        <time>2025-04-06T11:54:51.000Z</time>
      </trkpt>
      <trkpt lat="43.36554" lon="6.14995">
        <ele>426</ele>
        <time>2025-04-06T11:55:17.000Z</time>
      </trkpt>
      <trkpt lat="43.36545" lon="6.14944">
        <ele>423</ele>
        <time>2025-04-06T11:55:51.000Z</time>
      </trkpt>
      <trkpt lat="43.36538" lon="6.14896">
        <ele>422</ele>
        <time>2025-04-06T11:56:23.000Z</time>
      </trkpt>
      <trkpt lat="43.36534" lon="6.14873">
        <ele>422</ele>
        <time>2025-04-06T11:56:39.000Z</time>
      </trkpt>
      <trkpt lat="43.36535" lon="6.14862">
        <ele>421</ele>
        <time>2025-04-06T11:56:53.000Z</time>
      </trkpt>
      <trkpt lat="43.36534" lon="6.14869">
        <ele>423</ele>
        <time>2025-04-06T12:06:23.000Z</time>
      </trkpt>
      <trkpt lat="43.3654" lon="6.14879">
        <ele>423</ele>
        <time>2025-04-06T12:06:35.000Z</time>
      </trkpt>
      <trkpt lat="43.36544" lon="6.14904">
        <ele>425</ele>
        <time>2025-04-06T12:06:59.000Z</time>
      </trkpt>
      <trkpt lat="43.36547" lon="6.14913">
        <ele>425</ele>
        <time>2025-04-06T12:07:05.000Z</time>
      </trkpt>
      <trkpt lat="43.36546" lon="6.14929">
        <ele>422</ele>
        <time>2025-04-06T12:07:17.000Z</time>
      </trkpt>
      <trkpt lat="43.36547" lon="6.1494">
        <ele>419</ele>
        <time>2025-04-06T12:07:25.000Z</time>
      </trkpt>
      <trkpt lat="43.36553" lon="6.14982">
        <ele>416</ele>
        <time>2025-04-06T12:07:57.000Z</time>
      </trkpt>
      <trkpt lat="43.36551" lon="6.14993">
        <ele>418</ele>
        <time>2025-04-06T12:08:03.000Z</time>
      </trkpt>
      <trkpt lat="43.36553" lon="6.15007">
        <ele>418</ele>
        <time>2025-04-06T12:08:13.000Z</time>
      </trkpt>
      <trkpt lat="43.36554" lon="6.15037">
        <ele>423</ele>
        <time>2025-04-06T12:08:33.000Z</time>
      </trkpt>
      <trkpt lat="43.36553" lon="6.151">
        <ele>422</ele>
        <time>2025-04-06T12:09:17.000Z</time>
      </trkpt>
      <trkpt lat="43.36552" lon="6.15112">
        <ele>424</ele>
        <time>2025-04-06T12:09:25.000Z</time>
      </trkpt>
      <trkpt lat="43.36555" lon="6.15155">
        <ele>425</ele>
        <time>2025-04-06T12:09:55.000Z</time>
      </trkpt>
      <trkpt lat="43.36556" lon="6.15188">
        <ele>427</ele>
        <time>2025-04-06T12:10:23.000Z</time>
      </trkpt>
      <trkpt lat="43.36549" lon="6.1521">
        <ele>422</ele>
        <time>2025-04-06T12:10:51.000Z</time>
      </trkpt>
      <trkpt lat="43.36544" lon="6.15222">
        <ele>424</ele>
        <time>2025-04-06T12:10:59.000Z</time>
      </trkpt>
      <trkpt lat="43.36529" lon="6.15237">
        <ele>428</ele>
        <time>2025-04-06T12:11:17.000Z</time>
      </trkpt>
      <trkpt lat="43.36503" lon="6.1526">
        <ele>432</ele>
        <time>2025-04-06T12:11:51.000Z</time>
      </trkpt>
      <trkpt lat="43.36496" lon="6.15268">
        <ele>431</ele>
        <time>2025-04-06T12:11:59.000Z</time>
      </trkpt>
      <trkpt lat="43.36484" lon="6.15303">
        <ele>434</ele>
        <time>2025-04-06T12:12:35.000Z</time>
      </trkpt>
      <trkpt lat="43.36478" lon="6.15327">
        <ele>432</ele>
        <time>2025-04-06T12:12:51.000Z</time>
      </trkpt>
      <trkpt lat="43.36476" lon="6.1534">
        <ele>430</ele>
        <time>2025-04-06T12:12:59.000Z</time>
      </trkpt>
      <trkpt lat="43.36464" lon="6.15358">
        <ele>433</ele>
        <time>2025-04-06T12:13:15.000Z</time>
      </trkpt>
      <trkpt lat="43.36457" lon="6.15364">
        <ele>434</ele>
        <time>2025-04-06T12:13:21.000Z</time>
      </trkpt>
      <trkpt lat="43.36433" lon="6.15375">
        <ele>434</ele>
        <time>2025-04-06T12:13:41.000Z</time>
      </trkpt>
      <trkpt lat="43.36419" lon="6.15392">
        <ele>434</ele>
        <time>2025-04-06T12:13:55.000Z</time>
      </trkpt>
      <trkpt lat="43.3639" lon="6.15447">
        <ele>432</ele>
        <time>2025-04-06T12:14:39.000Z</time>
      </trkpt>
      <trkpt lat="43.36377" lon="6.15458">
        <ele>433</ele>
        <time>2025-04-06T12:14:53.000Z</time>
      </trkpt>
      <trkpt lat="43.36348" lon="6.15472">
        <ele>437</ele>
        <time>2025-04-06T12:15:19.000Z</time>
      </trkpt>
      <trkpt lat="43.3634" lon="6.15478">
        <ele>435</ele>
        <time>2025-04-06T12:15:27.000Z</time>
      </trkpt>
      <trkpt lat="43.36312" lon="6.15511">
        <ele>436</ele>
        <time>2025-04-06T12:15:57.000Z</time>
      </trkpt>
      <trkpt lat="43.36298" lon="6.15528">
        <ele>436</ele>
        <time>2025-04-06T12:16:13.000Z</time>
      </trkpt>
      <trkpt lat="43.36292" lon="6.15539">
        <ele>435</ele>
        <time>2025-04-06T12:16:21.000Z</time>
      </trkpt>
      <trkpt lat="43.36288" lon="6.15555">
        <ele>437</ele>
        <time>2025-04-06T12:16:31.000Z</time>
      </trkpt>
      <trkpt lat="43.36289" lon="6.15582">
        <ele>436</ele>
        <time>2025-04-06T12:16:45.000Z</time>
      </trkpt>
      <trkpt lat="43.36292" lon="6.15596">
        <ele>436</ele>
        <time>2025-04-06T12:16:53.000Z</time>
      </trkpt>
      <trkpt lat="43.36294" lon="6.1561">
        <ele>438</ele>
        <time>2025-04-06T12:17:13.000Z</time>
      </trkpt>
      <trkpt lat="43.36292" lon="6.15627">
        <ele>438</ele>
        <time>2025-04-06T12:17:25.000Z</time>
      </trkpt>
      <trkpt lat="43.3629" lon="6.15639">
        <ele>440</ele>
        <time>2025-04-06T12:17:33.000Z</time>
      </trkpt>
      <trkpt lat="43.36282" lon="6.15662">
        <ele>444</ele>
        <time>2025-04-06T12:17:49.000Z</time>
      </trkpt>
      <trkpt lat="43.36276" lon="6.15674">
        <ele>445</ele>
        <time>2025-04-06T12:17:59.000Z</time>
      </trkpt>
      <trkpt lat="43.36251" lon="6.15697">
        <ele>442</ele>
        <time>2025-04-06T12:18:25.000Z</time>
      </trkpt>
      <trkpt lat="43.36247" lon="6.15705">
        <ele>443</ele>
        <time>2025-04-06T12:18:31.000Z</time>
      </trkpt>
      <trkpt lat="43.36244" lon="6.15718">
        <ele>444</ele>
        <time>2025-04-06T12:18:39.000Z</time>
      </trkpt>
      <trkpt lat="43.3625" lon="6.15753">
        <ele>445</ele>
        <time>2025-04-06T12:19:01.000Z</time>
      </trkpt>
      <trkpt lat="43.36253" lon="6.15779">
        <ele>442</ele>
        <time>2025-04-06T12:19:19.000Z</time>
      </trkpt>
      <trkpt lat="43.36247" lon="6.15815">
        <ele>443</ele>
        <time>2025-04-06T12:19:43.000Z</time>
      </trkpt>
      <trkpt lat="43.36244" lon="6.15828">
        <ele>446</ele>
        <time>2025-04-06T12:19:53.000Z</time>
      </trkpt>
      <trkpt lat="43.36237" lon="6.15836">
        <ele>446</ele>
        <time>2025-04-06T12:20:01.000Z</time>
      </trkpt>
      <trkpt lat="43.36237" lon="6.15847">
        <ele>443</ele>
        <time>2025-04-06T12:20:19.000Z</time>
      </trkpt>
      <trkpt lat="43.36228" lon="6.15847">
        <ele>449</ele>
        <time>2025-04-06T12:23:25.000Z</time>
      </trkpt>
      <trkpt lat="43.36175" lon="6.15845">
        <ele>448</ele>
        <time>2025-04-06T12:24:15.000Z</time>
      </trkpt>
      <trkpt lat="43.36167" lon="6.15847">
        <ele>448</ele>
        <time>2025-04-06T12:24:23.000Z</time>
      </trkpt>
      <trkpt lat="43.36158" lon="6.15849">
        <ele>450</ele>
        <time>2025-04-06T12:24:31.000Z</time>
      </trkpt>
      <trkpt lat="43.36132" lon="6.15858">
        <ele>453</ele>
        <time>2025-04-06T12:24:55.000Z</time>
      </trkpt>
      <trkpt lat="43.36114" lon="6.15856">
        <ele>454</ele>
        <time>2025-04-06T12:25:09.000Z</time>
      </trkpt>
      <trkpt lat="43.36098" lon="6.15841">
        <ele>456</ele>
        <time>2025-04-06T12:25:25.000Z</time>
      </trkpt>
      <trkpt lat="43.36064" lon="6.15802">
        <ele>456</ele>
        <time>2025-04-06T12:26:03.000Z</time>
      </trkpt>
      <trkpt lat="43.36055" lon="6.15793">
        <ele>457</ele>
        <time>2025-04-06T12:26:15.000Z</time>
      </trkpt>
      <trkpt lat="43.36049" lon="6.15784">
        <ele>457</ele>
        <time>2025-04-06T12:26:23.000Z</time>
      </trkpt>
      <trkpt lat="43.36045" lon="6.15769">
        <ele>455</ele>
        <time>2025-04-06T12:26:35.000Z</time>
      </trkpt>
      <trkpt lat="43.36038" lon="6.15751">
        <ele>451</ele>
        <time>2025-04-06T12:26:49.000Z</time>
      </trkpt>
      <trkpt lat="43.3603" lon="6.15744">
        <ele>451</ele>
        <time>2025-04-06T12:26:55.000Z</time>
      </trkpt>
      <trkpt lat="43.36022" lon="6.15742">
        <ele>449</ele>
        <time>2025-04-06T12:27:03.000Z</time>
      </trkpt>
      <trkpt lat="43.36013" lon="6.15747">
        <ele>449</ele>
        <time>2025-04-06T12:27:09.000Z</time>
      </trkpt>
      <trkpt lat="43.35968" lon="6.15758">
        <ele>447</ele>
        <time>2025-04-06T12:27:47.000Z</time>
      </trkpt>
      <trkpt lat="43.35947" lon="6.15758">
        <ele>443</ele>
        <time>2025-04-06T12:28:05.000Z</time>
      </trkpt>
      <trkpt lat="43.35938" lon="6.15757">
        <ele>441</ele>
        <time>2025-04-06T12:28:13.000Z</time>
      </trkpt>
      <trkpt lat="43.35931" lon="6.15754">
        <ele>439</ele>
        <time>2025-04-06T12:28:19.000Z</time>
      </trkpt>
      <trkpt lat="43.35896" lon="6.15749">
        <ele>436</ele>
        <time>2025-04-06T12:28:49.000Z</time>
      </trkpt>
      <trkpt lat="43.35888" lon="6.15747">
        <ele>435</ele>
        <time>2025-04-06T12:28:55.000Z</time>
      </trkpt>
      <trkpt lat="43.35851" lon="6.15765">
        <ele>434</ele>
        <time>2025-04-06T12:29:27.000Z</time>
      </trkpt>
      <trkpt lat="43.35844" lon="6.15766">
        <ele>433</ele>
        <time>2025-04-06T12:29:35.000Z</time>
      </trkpt>
      <trkpt lat="43.35823" lon="6.15767">
        <ele>431</ele>
        <time>2025-04-06T12:31:33.000Z</time>
      </trkpt>
      <trkpt lat="43.35804" lon="6.15771">
        <ele>428</ele>
        <time>2025-04-06T12:31:51.000Z</time>
      </trkpt>
      <trkpt lat="43.35795" lon="6.15773">
        <ele>426</ele>
        <time>2025-04-06T12:31:59.000Z</time>
      </trkpt>
      <trkpt lat="43.35775" lon="6.1578">
        <ele>424</ele>
        <time>2025-04-06T12:32:17.000Z</time>
      </trkpt>
      <trkpt lat="43.35754" lon="6.15791">
        <ele>424</ele>
        <time>2025-04-06T12:32:35.000Z</time>
      </trkpt>
      <trkpt lat="43.35748" lon="6.15798">
        <ele>424</ele>
        <time>2025-04-06T12:32:41.000Z</time>
      </trkpt>
      <trkpt lat="43.3574" lon="6.15809">
        <ele>424</ele>
        <time>2025-04-06T12:32:51.000Z</time>
      </trkpt>
      <trkpt lat="43.35733" lon="6.15817">
        <ele>422</ele>
        <time>2025-04-06T12:32:57.000Z</time>
      </trkpt>
      <trkpt lat="43.35723" lon="6.15833">
        <ele>416</ele>
        <time>2025-04-06T12:33:15.000Z</time>
      </trkpt>
      <trkpt lat="43.35716" lon="6.15843">
        <ele>413</ele>
        <time>2025-04-06T12:33:23.000Z</time>
      </trkpt>
      <trkpt lat="43.35711" lon="6.15849">
        <ele>410</ele>
        <time>2025-04-06T12:33:31.000Z</time>
      </trkpt>
      <trkpt lat="43.35696" lon="6.1588">
        <ele>403</ele>
        <time>2025-04-06T12:33:51.000Z</time>
      </trkpt>
      <trkpt lat="43.35684" lon="6.15891">
        <ele>402</ele>
        <time>2025-04-06T12:34:03.000Z</time>
      </trkpt>
      <trkpt lat="43.35678" lon="6.15903">
        <ele>401</ele>
        <time>2025-04-06T12:34:11.000Z</time>
      </trkpt>
      <trkpt lat="43.35658" lon="6.15931">
        <ele>399</ele>
        <time>2025-04-06T12:34:29.000Z</time>
      </trkpt>
      <trkpt lat="43.3565" lon="6.15953">
        <ele>400</ele>
        <time>2025-04-06T12:34:45.000Z</time>
      </trkpt>
      <trkpt lat="43.3564" lon="6.15974">
        <ele>399</ele>
        <time>2025-04-06T12:35:01.000Z</time>
      </trkpt>
      <trkpt lat="43.35625" lon="6.16014">
        <ele>396</ele>
        <time>2025-04-06T12:35:23.000Z</time>
      </trkpt>
      <trkpt lat="43.35616" lon="6.1605">
        <ele>395</ele>
        <time>2025-04-06T12:35:45.000Z</time>
      </trkpt>
      <trkpt lat="43.35609" lon="6.16067">
        <ele>395</ele>
        <time>2025-04-06T12:35:55.000Z</time>
      </trkpt>
      <trkpt lat="43.35594" lon="6.16097">
        <ele>397</ele>
        <time>2025-04-06T12:36:13.000Z</time>
      </trkpt>
      <trkpt lat="43.35586" lon="6.16107">
        <ele>395</ele>
        <time>2025-04-06T12:36:21.000Z</time>
      </trkpt>
      <trkpt lat="43.3557" lon="6.16116">
        <ele>391</ele>
        <time>2025-04-06T12:36:35.000Z</time>
      </trkpt>
      <trkpt lat="43.35552" lon="6.16125">
        <ele>386</ele>
        <time>2025-04-06T12:36:49.000Z</time>
      </trkpt>
      <trkpt lat="43.35532" lon="6.16138">
        <ele>383</ele>
        <time>2025-04-06T12:37:05.000Z</time>
      </trkpt>
      <trkpt lat="43.35524" lon="6.16144">
        <ele>381</ele>
        <time>2025-04-06T12:37:15.000Z</time>
      </trkpt>
      <trkpt lat="43.3551" lon="6.16161">
        <ele>378</ele>
        <time>2025-04-06T12:37:31.000Z</time>
      </trkpt>
      <trkpt lat="43.35505" lon="6.16183">
        <ele>376</ele>
        <time>2025-04-06T12:37:45.000Z</time>
      </trkpt>
      <trkpt lat="43.35508" lon="6.16239">
        <ele>374</ele>
        <time>2025-04-06T12:38:19.000Z</time>
      </trkpt>
      <trkpt lat="43.35511" lon="6.16271">
        <ele>371</ele>
        <time>2025-04-06T12:38:37.000Z</time>
      </trkpt>
      <trkpt lat="43.35517" lon="6.16288">
        <ele>371</ele>
        <time>2025-04-06T12:38:47.000Z</time>
      </trkpt>
      <trkpt lat="43.35524" lon="6.16293">
        <ele>373</ele>
        <time>2025-04-06T12:38:55.000Z</time>
      </trkpt>
      <trkpt lat="43.35532" lon="6.16296">
        <ele>373</ele>
        <time>2025-04-06T12:39:03.000Z</time>
      </trkpt>
      <trkpt lat="43.35573" lon="6.16307">
        <ele>370</ele>
        <time>2025-04-06T12:39:37.000Z</time>
      </trkpt>
      <trkpt lat="43.35582" lon="6.16312">
        <ele>369</ele>
        <time>2025-04-06T12:39:45.000Z</time>
      </trkpt>
      <trkpt lat="43.35587" lon="6.16325">
        <ele>368</ele>
        <time>2025-04-06T12:39:55.000Z</time>
      </trkpt>
      <trkpt lat="43.35582" lon="6.16335">
        <ele>367</ele>
        <time>2025-04-06T12:40:01.000Z</time>
      </trkpt>
      <trkpt lat="43.3558" lon="6.16344">
        <ele>364</ele>
        <time>2025-04-06T12:40:07.000Z</time>
      </trkpt>
      <trkpt lat="43.35572" lon="6.16373">
        <ele>358</ele>
        <time>2025-04-06T12:40:29.000Z</time>
      </trkpt>
      <trkpt lat="43.35571" lon="6.16391">
        <ele>356</ele>
        <time>2025-04-06T12:40:39.000Z</time>
      </trkpt>
      <trkpt lat="43.35574" lon="6.16421">
        <ele>356</ele>
        <time>2025-04-06T12:40:55.000Z</time>
      </trkpt>
      <trkpt lat="43.35578" lon="6.1643">
        <ele>355</ele>
        <time>2025-04-06T12:41:03.000Z</time>
      </trkpt>
      <trkpt lat="43.35583" lon="6.16455">
        <ele>352</ele>
        <time>2025-04-06T12:41:17.000Z</time>
      </trkpt>
      <trkpt lat="43.35588" lon="6.16466">
        <ele>350</ele>
        <time>2025-04-06T12:41:25.000Z</time>
      </trkpt>
      <trkpt lat="43.35604" lon="6.16516">
        <ele>349</ele>
        <time>2025-04-06T12:41:55.000Z</time>
      </trkpt>
      <trkpt lat="43.35607" lon="6.16525">
        <ele>348</ele>
        <time>2025-04-06T12:42:01.000Z</time>
      </trkpt>
      <trkpt lat="43.35608" lon="6.16536">
        <ele>349</ele>
        <time>2025-04-06T12:42:07.000Z</time>
      </trkpt>
      <trkpt lat="43.35612" lon="6.16592">
        <ele>350</ele>
        <time>2025-04-06T12:42:39.000Z</time>
      </trkpt>
      <trkpt lat="43.35611" lon="6.16603">
        <ele>349</ele>
        <time>2025-04-06T12:42:45.000Z</time>
      </trkpt>
      <trkpt lat="43.3561" lon="6.16617">
        <ele>347</ele>
        <time>2025-04-06T12:42:53.000Z</time>
      </trkpt>
      <trkpt lat="43.3561" lon="6.16633">
        <ele>344</ele>
        <time>2025-04-06T12:43:03.000Z</time>
      </trkpt>
      <trkpt lat="43.35614" lon="6.16698">
        <ele>341</ele>
        <time>2025-04-06T12:43:41.000Z</time>
      </trkpt>
      <trkpt lat="43.35625" lon="6.16722">
        <ele>337</ele>
        <time>2025-04-06T12:43:57.000Z</time>
      </trkpt>
      <trkpt lat="43.35627" lon="6.1676">
        <ele>336</ele>
        <time>2025-04-06T12:44:19.000Z</time>
      </trkpt>
      <trkpt lat="43.35633" lon="6.16815">
        <ele>336</ele>
        <time>2025-04-06T12:44:53.000Z</time>
      </trkpt>
      <trkpt lat="43.3564" lon="6.16848">
        <ele>335</ele>
        <time>2025-04-06T12:45:13.000Z</time>
      </trkpt>
      <trkpt lat="43.35633" lon="6.16853">
        <ele>331</ele>
        <time>2025-04-06T12:50:41.000Z</time>
      </trkpt>
      <trkpt lat="43.35628" lon="6.16843">
        <ele>329</ele>
        <time>2025-04-06T12:50:53.000Z</time>
      </trkpt>
      <trkpt lat="43.35617" lon="6.16862">
        <ele>325</ele>
        <time>2025-04-06T12:51:19.000Z</time>
      </trkpt>
      <trkpt lat="43.35612" lon="6.16878">
        <ele>320</ele>
        <time>2025-04-06T12:51:35.000Z</time>
      </trkpt>
      <trkpt lat="43.35608" lon="6.16896">
        <ele>315</ele>
        <time>2025-04-06T12:51:49.000Z</time>
      </trkpt>
      <trkpt lat="43.35592" lon="6.16921">
        <ele>316</ele>
        <time>2025-04-06T12:52:17.000Z</time>
      </trkpt>
      <trkpt lat="43.35584" lon="6.16929">
        <ele>314</ele>
        <time>2025-04-06T12:52:27.000Z</time>
      </trkpt>
      <trkpt lat="43.35575" lon="6.16936">
        <ele>312</ele>
        <time>2025-04-06T12:52:39.000Z</time>
      </trkpt>
      <trkpt lat="43.35567" lon="6.16942">
        <ele>309</ele>
        <time>2025-04-06T12:52:49.000Z</time>
      </trkpt>
      <trkpt lat="43.35555" lon="6.16945">
        <ele>303</ele>
        <time>2025-04-06T12:53:01.000Z</time>
      </trkpt>
      <trkpt lat="43.3555" lon="6.16952">
        <ele>302</ele>
        <time>2025-04-06T12:53:09.000Z</time>
      </trkpt>
      <trkpt lat="43.35535" lon="6.1696">
        <ele>300</ele>
        <time>2025-04-06T12:53:27.000Z</time>
      </trkpt>
      <trkpt lat="43.35523" lon="6.16957">
        <ele>303</ele>
        <time>2025-04-06T12:54:27.000Z</time>
      </trkpt>
      <trkpt lat="43.35518" lon="6.16967">
        <ele>311</ele>
        <time>2025-04-06T12:55:11.000Z</time>
      </trkpt>
      <trkpt lat="43.35511" lon="6.16972">
        <ele>310</ele>
        <time>2025-04-06T12:55:23.000Z</time>
      </trkpt>
      <trkpt lat="43.35503" lon="6.16975">
        <ele>307</ele>
        <time>2025-04-06T12:55:31.000Z</time>
      </trkpt>
      <trkpt lat="43.35491" lon="6.16981">
        <ele>302</ele>
        <time>2025-04-06T12:55:41.000Z</time>
      </trkpt>
      <trkpt lat="43.35467" lon="6.16991">
        <ele>298</ele>
        <time>2025-04-06T12:56:05.000Z</time>
      </trkpt>
      <trkpt lat="43.35459" lon="6.16996">
        <ele>295</ele>
        <time>2025-04-06T12:56:13.000Z</time>
      </trkpt>
      <trkpt lat="43.35441" lon="6.17003">
        <ele>291</ele>
        <time>2025-04-06T12:56:31.000Z</time>
      </trkpt>
      <trkpt lat="43.35433" lon="6.17001">
        <ele>292</ele>
        <time>2025-04-06T12:56:41.000Z</time>
      </trkpt>
      <trkpt lat="43.35423" lon="6.17003">
        <ele>288</ele>
        <time>2025-04-06T12:56:53.000Z</time>
      </trkpt>
      <trkpt lat="43.35407" lon="6.17003">
        <ele>286</ele>
        <time>2025-04-06T12:57:11.000Z</time>
      </trkpt>
      <trkpt lat="43.3539" lon="6.1701">
        <ele>283</ele>
        <time>2025-04-06T12:57:31.000Z</time>
      </trkpt>
      <trkpt lat="43.3538" lon="6.17011">
        <ele>280</ele>
        <time>2025-04-06T12:58:35.000Z</time>
      </trkpt>
      <trkpt lat="43.35375" lon="6.17024">
        <ele>281</ele>
        <time>2025-04-06T12:58:49.000Z</time>
      </trkpt>
      <trkpt lat="43.35361" lon="6.17042">
        <ele>280</ele>
        <time>2025-04-06T12:59:07.000Z</time>
      </trkpt>
      <trkpt lat="43.35347" lon="6.17058">
        <ele>277</ele>
        <time>2025-04-06T12:59:25.000Z</time>
      </trkpt>
      <trkpt lat="43.3534" lon="6.17067">
        <ele>274</ele>
        <time>2025-04-06T12:59:45.000Z</time>
      </trkpt>
      <trkpt lat="43.35334" lon="6.17076">
        <ele>272</ele>
        <time>2025-04-06T12:59:53.000Z</time>
      </trkpt>
      <trkpt lat="43.35327" lon="6.1709">
        <ele>271</ele>
        <time>2025-04-06T13:00:11.000Z</time>
      </trkpt>
      <trkpt lat="43.35324" lon="6.17103">
        <ele>274</ele>
        <time>2025-04-06T13:00:47.000Z</time>
      </trkpt>
      <trkpt lat="43.35312" lon="6.17125">
        <ele>274</ele>
        <time>2025-04-06T13:01:21.000Z</time>
      </trkpt>
      <trkpt lat="43.35305" lon="6.17132">
        <ele>271</ele>
        <time>2025-04-06T13:01:29.000Z</time>
      </trkpt>
      <trkpt lat="43.35291" lon="6.17152">
        <ele>267</ele>
        <time>2025-04-06T13:01:47.000Z</time>
      </trkpt>
      <trkpt lat="43.35274" lon="6.17179">
        <ele>264</ele>
        <time>2025-04-06T13:02:09.000Z</time>
      </trkpt>
      <trkpt lat="43.35255" lon="6.17196">
        <ele>264</ele>
        <time>2025-04-06T13:02:31.000Z</time>
      </trkpt>
      <trkpt lat="43.35234" lon="6.17234">
        <ele>261</ele>
        <time>2025-04-06T13:03:01.000Z</time>
      </trkpt>
      <trkpt lat="43.35224" lon="6.17271">
        <ele>261</ele>
        <time>2025-04-06T13:03:25.000Z</time>
      </trkpt>
      <trkpt lat="43.35218" lon="6.17315">
        <ele>258</ele>
        <time>2025-04-06T13:03:55.000Z</time>
      </trkpt>
      <trkpt lat="43.35209" lon="6.17344">
        <ele>257</ele>
        <time>2025-04-06T13:04:21.000Z</time>
      </trkpt>
      <trkpt lat="43.35197" lon="6.17351">
        <ele>265</ele>
        <time>2025-04-06T13:05:41.000Z</time>
      </trkpt>
      <trkpt lat="43.35179" lon="6.17354">
        <ele>260</ele>
        <time>2025-04-06T13:05:57.000Z</time>
      </trkpt>
      <trkpt lat="43.3517" lon="6.17351">
        <ele>258</ele>
        <time>2025-04-06T13:06:05.000Z</time>
      </trkpt>
      <trkpt lat="43.35159" lon="6.17348">
        <ele>256</ele>
        <time>2025-04-06T13:06:17.000Z</time>
      </trkpt>
      <trkpt lat="43.3515" lon="6.17351">
        <ele>256</ele>
        <time>2025-04-06T13:06:25.000Z</time>
      </trkpt>
      <trkpt lat="43.35124" lon="6.17348">
        <ele>255</ele>
        <time>2025-04-06T13:06:47.000Z</time>
      </trkpt>
      <trkpt lat="43.35093" lon="6.17351">
        <ele>248</ele>
        <time>2025-04-06T13:07:15.000Z</time>
      </trkpt>
      <trkpt lat="43.3506" lon="6.17377">
        <ele>248</ele>
        <time>2025-04-06T13:07:45.000Z</time>
      </trkpt>
      <trkpt lat="43.35053" lon="6.17382">
        <ele>250</ele>
        <time>2025-04-06T13:07:51.000Z</time>
      </trkpt>
      <trkpt lat="43.35021" lon="6.17384">
        <ele>253</ele>
        <time>2025-04-06T13:08:19.000Z</time>
      </trkpt>
      <trkpt lat="43.35005" lon="6.17379">
        <ele>256</ele>
        <time>2025-04-06T13:08:41.000Z</time>
      </trkpt>
      <trkpt lat="43.34997" lon="6.17377">
        <ele>259</ele>
        <time>2025-04-06T13:09:01.000Z</time>
      </trkpt>
      <trkpt lat="43.34977" lon="6.17377">
        <ele>263</ele>
        <time>2025-04-06T13:09:29.000Z</time>
      </trkpt>
      <trkpt lat="43.34968" lon="6.17374">
        <ele>263</ele>
        <time>2025-04-06T13:09:39.000Z</time>
      </trkpt>
      <trkpt lat="43.34963" lon="6.17383">
        <ele>259</ele>
        <time>2025-04-06T13:09:51.000Z</time>
      </trkpt>
      <trkpt lat="43.34971" lon="6.17391">
        <ele>257</ele>
        <time>2025-04-06T13:12:05.000Z</time>
      </trkpt>
      <trkpt lat="43.34973" lon="6.17408">
        <ele>256</ele>
        <time>2025-04-06T13:12:15.000Z</time>
      </trkpt>
      <trkpt lat="43.3497" lon="6.17457">
        <ele>253</ele>
        <time>2025-04-06T13:12:55.000Z</time>
      </trkpt>
      <trkpt lat="43.34969" lon="6.17476">
        <ele>252</ele>
        <time>2025-04-06T13:14:09.000Z</time>
      </trkpt>
      <trkpt lat="43.34966" lon="6.1749">
        <ele>254</ele>
        <time>2025-04-06T13:14:19.000Z</time>
      </trkpt>
      <trkpt lat="43.3497" lon="6.175">
        <ele>253</ele>
        <time>2025-04-06T13:14:29.000Z</time>
      </trkpt>
      <trkpt lat="43.34971" lon="6.17516">
        <ele>249</ele>
        <time>2025-04-06T13:14:45.000Z</time>
      </trkpt>
      <trkpt lat="43.3497" lon="6.17527">
        <ele>249</ele>
        <time>2025-04-06T13:15:03.000Z</time>
      </trkpt>
      <trkpt lat="43.34974" lon="6.17536">
        <ele>249</ele>
        <time>2025-04-06T13:15:11.000Z</time>
      </trkpt>
      <trkpt lat="43.34973" lon="6.17551">
        <ele>249</ele>
        <time>2025-04-06T13:15:25.000Z</time>
      </trkpt>
      <trkpt lat="43.34967" lon="6.17572">
        <ele>248</ele>
        <time>2025-04-06T13:16:03.000Z</time>
      </trkpt>
      <trkpt lat="43.3497" lon="6.17589">
        <ele>251</ele>
        <time>2025-04-06T13:16:13.000Z</time>
      </trkpt>
      <trkpt lat="43.34978" lon="6.17589">
        <ele>253</ele>
        <time>2025-04-06T13:16:17.000Z</time>
      </trkpt>
      <trkpt lat="43.34968" lon="6.17599">
        <ele>254</ele>
        <time>2025-04-06T13:16:39.000Z</time>
      </trkpt>
      <trkpt lat="43.34961" lon="6.17603">
        <ele>250</ele>
        <time>2025-04-06T13:16:47.000Z</time>
      </trkpt>
      <trkpt lat="43.34956" lon="6.1761">
        <ele>247</ele>
        <time>2025-04-06T13:16:57.000Z</time>
      </trkpt>
      <trkpt lat="43.34952" lon="6.17619">
        <ele>244</ele>
        <time>2025-04-06T13:17:09.000Z</time>
      </trkpt>
      <trkpt lat="43.34944" lon="6.17624">
        <ele>243</ele>
        <time>2025-04-06T13:17:19.000Z</time>
      </trkpt>
      <trkpt lat="43.34935" lon="6.17637">
        <ele>242</ele>
        <time>2025-04-06T13:17:33.000Z</time>
      </trkpt>
      <trkpt lat="43.3494" lon="6.17647">
        <ele>256</ele>
        <time>2025-04-06T13:19:43.000Z</time>
      </trkpt>
      <trkpt lat="43.3494" lon="6.17664">
        <ele>258</ele>
        <time>2025-04-06T13:19:51.000Z</time>
      </trkpt>
      <trkpt lat="43.34938" lon="6.17675">
        <ele>256</ele>
        <time>2025-04-06T13:19:59.000Z</time>
      </trkpt>
      <trkpt lat="43.34934" lon="6.17684">
        <ele>251</ele>
        <time>2025-04-06T13:20:53.000Z</time>
      </trkpt>
      <trkpt lat="43.34925" lon="6.17688">
        <ele>249</ele>
        <time>2025-04-06T13:21:05.000Z</time>
      </trkpt>
      <trkpt lat="43.34915" lon="6.17693">
        <ele>246</ele>
        <time>2025-04-06T13:21:17.000Z</time>
      </trkpt>
      <trkpt lat="43.34909" lon="6.17699">
        <ele>246</ele>
        <time>2025-04-06T13:21:23.000Z</time>
      </trkpt>
      <trkpt lat="43.34894" lon="6.17705">
        <ele>245</ele>
        <time>2025-04-06T13:22:23.000Z</time>
      </trkpt>
      <trkpt lat="43.34887" lon="6.17708">
        <ele>244</ele>
        <time>2025-04-06T13:22:29.000Z</time>
      </trkpt>
      <trkpt lat="43.34882" lon="6.17719">
        <ele>245</ele>
        <time>2025-04-06T13:22:39.000Z</time>
      </trkpt>
      <trkpt lat="43.34876" lon="6.17726">
        <ele>247</ele>
        <time>2025-04-06T13:22:47.000Z</time>
      </trkpt>
      <trkpt lat="43.34871" lon="6.17734">
        <ele>248</ele>
        <time>2025-04-06T13:23:07.000Z</time>
      </trkpt>
      <trkpt lat="43.34864" lon="6.17741">
        <ele>249</ele>
        <time>2025-04-06T13:23:13.000Z</time>
      </trkpt>
      <trkpt lat="43.34864" lon="6.17738">
        <ele>252</ele>
        <time>2025-04-06T13:24:01.000Z</time>
      </trkpt>
      <trkpt lat="43.34871" lon="6.17733">
        <ele>254</ele>
        <time>2025-04-06T13:24:13.000Z</time>
      </trkpt>
      <trkpt lat="43.34877" lon="6.17725">
        <ele>254</ele>
        <time>2025-04-06T13:24:21.000Z</time>
      </trkpt>
      <trkpt lat="43.34892" lon="6.17709">
        <ele>254</ele>
        <time>2025-04-06T13:24:49.000Z</time>
      </trkpt>
      <trkpt lat="43.34901" lon="6.17709">
        <ele>254</ele>
        <time>2025-04-06T13:24:59.000Z</time>
      </trkpt>
      <trkpt lat="43.3492" lon="6.17689">
        <ele>254</ele>
        <time>2025-04-06T13:25:51.000Z</time>
      </trkpt>
      <trkpt lat="43.34933" lon="6.17687">
        <ele>257</ele>
        <time>2025-04-06T13:25:59.000Z</time>
      </trkpt>
      <trkpt lat="43.34935" lon="6.17676">
        <ele>260</ele>
        <time>2025-04-06T13:26:09.000Z</time>
      </trkpt>
      <trkpt lat="43.34949" lon="6.17676">
        <ele>261</ele>
        <time>2025-04-06T13:27:07.000Z</time>
      </trkpt>
      <trkpt lat="43.34956" lon="6.17674">
        <ele>259</ele>
        <time>2025-04-06T13:27:27.000Z</time>
      </trkpt>
      <trkpt lat="43.34957" lon="6.17669">
        <ele>256</ele>
        <time>2025-04-06T13:27:49.000Z</time>
      </trkpt>
      <trkpt lat="43.34955" lon="6.17664">
        <ele>253</ele>
        <time>2025-04-06T13:27:57.000Z</time>
      </trkpt>
      <trkpt lat="43.34948" lon="6.1766">
        <ele>257</ele>
        <time>2025-04-06T13:27:59.000Z</time>
      </trkpt>
      <trkpt lat="43.34957" lon="6.17678">
        <ele>263</ele>
        <time>2025-04-06T13:28:17.000Z</time>
      </trkpt>
      <trkpt lat="43.34957" lon="6.17667">
        <ele>261</ele>
        <time>2025-04-06T13:28:43.000Z</time>
      </trkpt>
      <trkpt lat="43.34969" lon="6.17682">
        <ele>260</ele>
        <time>2025-04-06T13:29:01.000Z</time>
      </trkpt>
      <trkpt lat="43.3497" lon="6.17669">
        <ele>258</ele>
        <time>2025-04-06T13:29:42.000Z</time>
      </trkpt>
      <trkpt lat="43.34973" lon="6.17639">
        <ele>266</ele>
        <time>2025-04-06T13:29:46.000Z</time>
      </trkpt>
      <trkpt lat="43.34974" lon="6.17644">
        <ele>275</ele>
        <time>2025-04-06T13:30:14.000Z</time>
      </trkpt>
      <trkpt lat="43.34987" lon="6.17653">
        <ele>275</ele>
        <time>2025-04-06T13:30:18.000Z</time>
      </trkpt>
      <trkpt lat="43.34995" lon="6.17647">
        <ele>273</ele>
        <time>2025-04-06T13:30:26.000Z</time>
      </trkpt>
      <trkpt lat="43.35003" lon="6.17642">
        <ele>268</ele>
        <time>2025-04-06T13:30:36.000Z</time>
      </trkpt>
      <trkpt lat="43.35002" lon="6.17632">
        <ele>263</ele>
        <time>2025-04-06T13:31:06.000Z</time>
      </trkpt>
      <trkpt lat="43.35008" lon="6.17604">
        <ele>264</ele>
        <time>2025-04-06T13:31:48.000Z</time>
      </trkpt>
      <trkpt lat="43.35016" lon="6.17604">
        <ele>260</ele>
        <time>2025-04-06T13:33:58.000Z</time>
      </trkpt>
      <trkpt lat="43.3502" lon="6.17608">
        <ele>250</ele>
        <time>2025-04-06T13:35:18.000Z</time>
      </trkpt>
      <trkpt lat="43.35012" lon="6.17614">
        <ele>254</ele>
        <time>2025-04-06T13:35:28.000Z</time>
      </trkpt>
      <trkpt lat="43.35002" lon="6.17628">
        <ele>262</ele>
        <time>2025-04-06T13:36:42.000Z</time>
      </trkpt>
      <trkpt lat="43.35003" lon="6.17638">
        <ele>265</ele>
        <time>2025-04-06T13:38:10.000Z</time>
      </trkpt>
      <trkpt lat="43.35002" lon="6.17659">
        <ele>258</ele>
        <time>2025-04-06T13:38:30.000Z</time>
      </trkpt>
      <trkpt lat="43.35004" lon="6.17669">
        <ele>256</ele>
        <time>2025-04-06T13:38:38.000Z</time>
      </trkpt>
      <trkpt lat="43.35005" lon="6.17679">
        <ele>253</ele>
        <time>2025-04-06T13:38:50.000Z</time>
      </trkpt>
      <trkpt lat="43.34995" lon="6.17683">
        <ele>255</ele>
        <time>2025-04-06T13:39:34.000Z</time>
      </trkpt>
      <trkpt lat="43.34988" lon="6.17692">
        <ele>257</ele>
        <time>2025-04-06T13:39:50.000Z</time>
      </trkpt>
      <trkpt lat="43.3498" lon="6.17694">
        <ele>260</ele>
        <time>2025-04-06T13:40:04.000Z</time>
      </trkpt>
      <trkpt lat="43.34973" lon="6.17698">
        <ele>262</ele>
        <time>2025-04-06T13:40:16.000Z</time>
      </trkpt>
      <trkpt lat="43.34964" lon="6.17696">
        <ele>258</ele>
        <time>2025-04-06T13:40:38.000Z</time>
      </trkpt>
      <trkpt lat="43.34957" lon="6.17694">
        <ele>256</ele>
        <time>2025-04-06T13:40:44.000Z</time>
      </trkpt>
      <trkpt lat="43.34956" lon="6.17696">
        <ele>266</ele>
        <time>2025-04-06T13:43:38.000Z</time>
      </trkpt>
      <trkpt lat="43.34956" lon="6.17708">
        <ele>266</ele>
        <time>2025-04-06T13:43:56.000Z</time>
      </trkpt>
      <trkpt lat="43.34958" lon="6.17708">
        <ele>261</ele>
        <time>2025-04-06T13:44:30.000Z</time>
      </trkpt>
      <trkpt lat="43.34961" lon="6.17719">
        <ele>257</ele>
        <time>2025-04-06T13:45:10.000Z</time>
      </trkpt>
      <trkpt lat="43.34962" lon="6.17734">
        <ele>248</ele>
        <time>2025-04-06T13:45:28.000Z</time>
      </trkpt>
      <trkpt lat="43.34959" lon="6.17747">
        <ele>247</ele>
        <time>2025-04-06T13:45:40.000Z</time>
      </trkpt>
      <trkpt lat="43.34958" lon="6.1777">
        <ele>243</ele>
        <time>2025-04-06T13:45:58.000Z</time>
      </trkpt>
      <trkpt lat="43.34965" lon="6.17775">
        <ele>240</ele>
        <time>2025-04-06T13:46:08.000Z</time>
      </trkpt>
      <trkpt lat="43.34952" lon="6.17794">
        <ele>239</ele>
        <time>2025-04-06T13:46:22.000Z</time>
      </trkpt>
      <trkpt lat="43.34956" lon="6.17806">
        <ele>238</ele>
        <time>2025-04-06T13:46:30.000Z</time>
      </trkpt>
      <trkpt lat="43.34953" lon="6.17815">
        <ele>239</ele>
        <time>2025-04-06T13:46:40.000Z</time>
      </trkpt>
      <trkpt lat="43.34964" lon="6.17818">
        <ele>243</ele>
        <time>2025-04-06T13:46:50.000Z</time>
      </trkpt>
      <trkpt lat="43.34977" lon="6.1782">
        <ele>245</ele>
        <time>2025-04-06T13:47:02.000Z</time>
      </trkpt>
      <trkpt lat="43.34986" lon="6.17823">
        <ele>248</ele>
        <time>2025-04-06T13:47:10.000Z</time>
      </trkpt>
      <trkpt lat="43.35003" lon="6.17828">
        <ele>248</ele>
        <time>2025-04-06T13:47:28.000Z</time>
      </trkpt>
      <trkpt lat="43.35015" lon="6.17835">
        <ele>246</ele>
        <time>2025-04-06T13:47:40.000Z</time>
      </trkpt>
      <trkpt lat="43.35021" lon="6.17842">
        <ele>249</ele>
        <time>2025-04-06T13:49:38.000Z</time>
      </trkpt>
      <trkpt lat="43.35034" lon="6.17841">
        <ele>246</ele>
        <time>2025-04-06T13:50:22.000Z</time>
      </trkpt>
      <trkpt lat="43.35042" lon="6.17841">
        <ele>244</ele>
        <time>2025-04-06T13:50:34.000Z</time>
      </trkpt>
      <trkpt lat="43.35054" lon="6.17847">
        <ele>248</ele>
        <time>2025-04-06T13:52:04.000Z</time>
      </trkpt>
      <trkpt lat="43.35063" lon="6.17835">
        <ele>246</ele>
        <time>2025-04-06T13:53:00.000Z</time>
      </trkpt>
      <trkpt lat="43.35069" lon="6.17828">
        <ele>247</ele>
        <time>2025-04-06T13:53:08.000Z</time>
      </trkpt>
      <trkpt lat="43.35102" lon="6.17813">
        <ele>249</ele>
        <time>2025-04-06T13:53:40.000Z</time>
      </trkpt>
      <trkpt lat="43.35106" lon="6.17792">
        <ele>246</ele>
        <time>2025-04-06T13:53:56.000Z</time>
      </trkpt>
      <trkpt lat="43.35107" lon="6.17775">
        <ele>247</ele>
        <time>2025-04-06T13:54:10.000Z</time>
      </trkpt>
      <trkpt lat="43.35097" lon="6.17753">
        <ele>247</ele>
        <time>2025-04-06T13:54:28.000Z</time>
      </trkpt>
      <trkpt lat="43.3509" lon="6.17712">
        <ele>249</ele>
        <time>2025-04-06T13:55:00.000Z</time>
      </trkpt>
    </trkseg>
  </trk>
</gpx>